<?xml version="1.0" encoding="UTF-8" standalone="no" ?><gpx xmlns="http://www.topografix.com/GPX/1/1" xmlns:gpxx="http://www.garmin.com/xmlschemas/GpxExtensions/v3" xmlns:wptx1="http://www.garmin.com/xmlschemas/WaypointExtension/v1" xmlns:gpxtpx="http://www.garmin.com/xmlschemas/TrackPointExtension/v1" creator="Dakota 20" version="1.1" xmlns:xsi="http://www.w3.org/2001/XMLSchema-instance" xsi:schemaLocation="http://www.topografix.com/GPX/1/1 http://www.topografix.com/GPX/1/1/gpx.xsd http://www.garmin.com/xmlschemas/GpxExtensions/v3 http://www8.garmin.com/xmlschemas/GpxExtensionsv3.xsd http://www.garmin.com/xmlschemas/WaypointExtension/v1 http://www8.garmin.com/xmlschemas/WaypointExtensionv1.xsd http://www.garmin.com/xmlschemas/TrackPointExtension/v1 http://www.garmin.com/xmlschemas/TrackPointExtensionv1.xsd"><metadata><link href="http://www.garmin.com"><text>Garmin International</text></link><time>2015-11-11T17:35:08Z</time></metadata><trk><name>Current Track: 11 NOV 2015 10:04</name><extensions><gpxx:TrackExtension><gpxx:DisplayColor>Cyan</gpxx:DisplayColor></gpxx:TrackExtension></extensions><trkseg><trkpt lat="51.7605098337" lon="-1.8349704333"><ele>126.55</ele><time>2015-11-11T10:04:21Z</time></trkpt><trkpt lat="51.7604639847" lon="-1.8349799886"><ele>126.07</ele><time>2015-11-11T10:04:35Z</time></trkpt><trkpt lat="51.7603915650" lon="-1.8349188846"><ele>126.07</ele><time>2015-11-11T10:04:48Z</time></trkpt><trkpt lat="51.7603726219" lon="-1.8349388335"><ele>126.07</ele><time>2015-11-11T10:05:06Z</time></trkpt><trkpt lat="51.7603685986" lon="-1.8349370733"><ele>126.07</ele><time>2015-11-11T10:05:22Z</time></trkpt><trkpt lat="51.7603691015" lon="-1.8349286914"><ele>125.59</ele><time>2015-11-11T10:05:33Z</time></trkpt><trkpt lat="51.7602759786" lon="-1.8348670844"><ele>125.59</ele><time>2015-11-11T10:05:47Z</time></trkpt><trkpt lat="51.7600922473" lon="-1.8347648252"><ele>125.59</ele><time>2015-11-11T10:06:06Z</time></trkpt><trkpt lat="51.7600793391" lon="-1.8347489834"><ele>126.07</ele><time>2015-11-11T10:06:07Z</time></trkpt><trkpt lat="51.7599477433" lon="-1.8346002046"><ele>125.59</ele><time>2015-11-11T10:06:22Z</time></trkpt><trkpt lat="51.7598072626" lon="-1.8344989512"><ele>125.11</ele><time>2015-11-11T10:06:37Z</time></trkpt><trkpt lat="51.7596691288" lon="-1.8343587220"><ele>124.63</ele><time>2015-11-11T10:06:52Z</time></trkpt><trkpt lat="51.7595134769" lon="-1.8342257012"><ele>124.63</ele><time>2015-11-11T10:07:11Z</time></trkpt><trkpt lat="51.7593984772" lon="-1.8340819515"><ele>125.11</ele><time>2015-11-11T10:07:27Z</time></trkpt><trkpt lat="51.7592913564" lon="-1.8339961208"><ele>125.11</ele><time>2015-11-11T10:07:42Z</time></trkpt><trkpt lat="51.7591329385" lon="-1.8338557240"><ele>124.63</ele><time>2015-11-11T10:08:01Z</time></trkpt><trkpt lat="51.7589997500" lon="-1.8337674625"><ele>125.11</ele><time>2015-11-11T10:08:19Z</time></trkpt><trkpt lat="51.7588271666" lon="-1.8336385489"><ele>125.11</ele><time>2015-11-11T10:08:37Z</time></trkpt><trkpt lat="51.7587114125" lon="-1.8335247226"><ele>124.15</ele><time>2015-11-11T10:08:52Z</time></trkpt><trkpt lat="51.7585607897" lon="-1.8333896063"><ele>124.63</ele><time>2015-11-11T10:09:09Z</time></trkpt><trkpt lat="51.7584704328" lon="-1.8332941364"><ele>130.40</ele><time>2015-11-11T10:09:21Z</time></trkpt><trkpt lat="51.7584645655" lon="-1.8332812283"><ele>124.15</ele><time>2015-11-11T10:09:22Z</time></trkpt><trkpt lat="51.7583305389" lon="-1.8331755325"><ele>124.15</ele><time>2015-11-11T10:09:37Z</time></trkpt><trkpt lat="51.7581758928" lon="-1.8330128398"><ele>124.63</ele><time>2015-11-11T10:09:56Z</time></trkpt><trkpt lat="51.7580614798" lon="-1.8328895420"><ele>125.11</ele><time>2015-11-11T10:10:12Z</time></trkpt><trkpt lat="51.7579528503" lon="-1.8327815831"><ele>124.63</ele><time>2015-11-11T10:10:31Z</time></trkpt><trkpt lat="51.7578455620" lon="-1.8326266855"><ele>123.67</ele><time>2015-11-11T10:10:47Z</time></trkpt><trkpt lat="51.7578370962" lon="-1.8326139450"><ele>123.67</ele><time>2015-11-11T10:10:48Z</time></trkpt><trkpt lat="51.7577143852" lon="-1.8324040622"><ele>123.67</ele><time>2015-11-11T10:11:02Z</time></trkpt><trkpt lat="51.7576169875" lon="-1.8322215043"><ele>123.67</ele><time>2015-11-11T10:11:16Z</time></trkpt><trkpt lat="51.7575163208" lon="-1.8320581410"><ele>123.19</ele><time>2015-11-11T10:11:28Z</time></trkpt><trkpt lat="51.7574254610" lon="-1.8318871502"><ele>123.19</ele><time>2015-11-11T10:11:42Z</time></trkpt><trkpt lat="51.7574154865" lon="-1.8318635970"><ele>122.71</ele><time>2015-11-11T10:11:44Z</time></trkpt><trkpt lat="51.7573455814" lon="-1.8316467572"><ele>122.71</ele><time>2015-11-11T10:12:03Z</time></trkpt><trkpt lat="51.7572835553" lon="-1.8314765207"><ele>122.71</ele><time>2015-11-11T10:12:16Z</time></trkpt><trkpt lat="51.7572429031" lon="-1.8313554861"><ele>123.19</ele><time>2015-11-11T10:12:24Z</time></trkpt><trkpt lat="51.7572629359" lon="-1.8311444297"><ele>122.71</ele><time>2015-11-11T10:12:39Z</time></trkpt><trkpt lat="51.7573438212" lon="-1.8309893645"><ele>122.71</ele><time>2015-11-11T10:12:54Z</time></trkpt><trkpt lat="51.7573840544" lon="-1.8309208844"><ele>122.71</ele><time>2015-11-11T10:13:03Z</time></trkpt><trkpt lat="51.7575091962" lon="-1.8307297770"><ele>122.71</ele><time>2015-11-11T10:13:17Z</time></trkpt><trkpt lat="51.7577049136" lon="-1.8306558486"><ele>122.71</ele><time>2015-11-11T10:13:34Z</time></trkpt><trkpt lat="51.7578590568" lon="-1.8306809105"><ele>124.15</ele><time>2015-11-11T10:13:51Z</time></trkpt><trkpt lat="51.7578675225" lon="-1.8306840956"><ele>123.67</ele><time>2015-11-11T10:13:52Z</time></trkpt><trkpt lat="51.7580255214" lon="-1.8306967523"><ele>125.11</ele><time>2015-11-11T10:14:10Z</time></trkpt><trkpt lat="51.7580354121" lon="-1.8307002727"><ele>124.63</ele><time>2015-11-11T10:14:11Z</time></trkpt><trkpt lat="51.7581846938" lon="-1.8306986801"><ele>125.11</ele><time>2015-11-11T10:14:26Z</time></trkpt><trkpt lat="51.7584064789" lon="-1.8306522444"><ele>127.03</ele><time>2015-11-11T10:14:45Z</time></trkpt><trkpt lat="51.7585889529" lon="-1.8305813335"><ele>127.51</ele><time>2015-11-11T10:15:06Z</time></trkpt><trkpt lat="51.7587308586" lon="-1.8305490632"><ele>128.95</ele><time>2015-11-11T10:15:24Z</time></trkpt><trkpt lat="51.7588823196" lon="-1.8305146974"><ele>129.92</ele><time>2015-11-11T10:15:41Z</time></trkpt><trkpt lat="51.7590273265" lon="-1.8304117676"><ele>130.40</ele><time>2015-11-11T10:15:58Z</time></trkpt><trkpt lat="51.7591162585" lon="-1.8302557804"><ele>131.36</ele><time>2015-11-11T10:16:10Z</time></trkpt><trkpt lat="51.7592279054" lon="-1.8299860507"><ele>131.84</ele><time>2015-11-11T10:16:29Z</time></trkpt><trkpt lat="51.7591877561" lon="-1.8297585659"><ele>132.32</ele><time>2015-11-11T10:16:42Z</time></trkpt><trkpt lat="51.7591906898" lon="-1.8295060191"><ele>132.32</ele><time>2015-11-11T10:16:59Z</time></trkpt><trkpt lat="51.7592303362" lon="-1.8292236328"><ele>132.32</ele><time>2015-11-11T10:17:15Z</time></trkpt><trkpt lat="51.7592669651" lon="-1.8290670589"><ele>131.84</ele><time>2015-11-11T10:17:30Z</time></trkpt><trkpt lat="51.7592593376" lon="-1.8290252332"><ele>131.36</ele><time>2015-11-11T10:17:44Z</time></trkpt><trkpt lat="51.7592460942" lon="-1.8290048651"><ele>131.36</ele><time>2015-11-11T10:18:10Z</time></trkpt><trkpt lat="51.7592322640" lon="-1.8290120736"><ele>130.88</ele><time>2015-11-11T10:18:32Z</time></trkpt><trkpt lat="51.7592342757" lon="-1.8290330283"><ele>130.40</ele><time>2015-11-11T10:19:03Z</time></trkpt><trkpt lat="51.7591752671" lon="-1.8289448507"><ele>129.43</ele><time>2015-11-11T10:19:23Z</time></trkpt><trkpt lat="51.7590414081" lon="-1.8287923001"><ele>127.99</ele><time>2015-11-11T10:19:40Z</time></trkpt><trkpt lat="51.7589970678" lon="-1.8287601136"><ele>126.55</ele><time>2015-11-11T10:19:47Z</time></trkpt><trkpt lat="51.7589780409" lon="-1.8287417572"><ele>126.55</ele><time>2015-11-11T10:19:49Z</time></trkpt><trkpt lat="51.7588342912" lon="-1.8286294397"><ele>124.63</ele><time>2015-11-11T10:20:05Z</time></trkpt><trkpt lat="51.7587708402" lon="-1.8285696767"><ele>123.67</ele><time>2015-11-11T10:20:12Z</time></trkpt><trkpt lat="51.7587347981" lon="-1.8285306171"><ele>122.71</ele><time>2015-11-11T10:20:16Z</time></trkpt><trkpt lat="51.7586014420" lon="-1.8284072354"><ele>121.74</ele><time>2015-11-11T10:20:30Z</time></trkpt><trkpt lat="51.7585157789" lon="-1.8283592910"><ele>120.78</ele><time>2015-11-11T10:20:43Z</time></trkpt><trkpt lat="51.7584464606" lon="-1.8282727897"><ele>119.34</ele><time>2015-11-11T10:20:55Z</time></trkpt><trkpt lat="51.7583369929" lon="-1.8281029724"><ele>118.86</ele><time>2015-11-11T10:21:12Z</time></trkpt><trkpt lat="51.7582641542" lon="-1.8280172255"><ele>118.38</ele><time>2015-11-11T10:21:21Z</time></trkpt><trkpt lat="51.7581337318" lon="-1.8277749885"><ele>117.90</ele><time>2015-11-11T10:21:38Z</time></trkpt><trkpt lat="51.7580509186" lon="-1.8276800215"><ele>117.90</ele><time>2015-11-11T10:21:52Z</time></trkpt><trkpt lat="51.7580893915" lon="-1.8277526926"><ele>118.38</ele><time>2015-11-11T10:22:13Z</time></trkpt><trkpt lat="51.7580157146" lon="-1.8276676163"><ele>117.42</ele><time>2015-11-11T10:22:27Z</time></trkpt><trkpt lat="51.7578628287" lon="-1.8274676241"><ele>116.94</ele><time>2015-11-11T10:22:44Z</time></trkpt><trkpt lat="51.7577214260" lon="-1.8272646982"><ele>117.90</ele><time>2015-11-11T10:23:00Z</time></trkpt><trkpt lat="51.7575940210" lon="-1.8270831462"><ele>117.42</ele><time>2015-11-11T10:23:14Z</time></trkpt><trkpt lat="51.7574427277" lon="-1.8269426655"><ele>116.94</ele><time>2015-11-11T10:23:30Z</time></trkpt><trkpt lat="51.7574081942" lon="-1.8269382231"><ele>116.46</ele><time>2015-11-11T10:23:48Z</time></trkpt><trkpt lat="51.7573837191" lon="-1.8269082997"><ele>116.46</ele><time>2015-11-11T10:23:52Z</time></trkpt><trkpt lat="51.7572455015" lon="-1.8267311901"><ele>116.46</ele><time>2015-11-11T10:24:04Z</time></trkpt><trkpt lat="51.7571136542" lon="-1.8266612850"><ele>116.94</ele><time>2015-11-11T10:24:18Z</time></trkpt><trkpt lat="51.7570947111" lon="-1.8267212994"><ele>117.42</ele><time>2015-11-11T10:24:22Z</time></trkpt><trkpt lat="51.7568908632" lon="-1.8269989919"><ele>118.38</ele><time>2015-11-11T10:24:40Z</time></trkpt><trkpt lat="51.7568701599" lon="-1.8269981537"><ele>118.86</ele><time>2015-11-11T10:24:42Z</time></trkpt><trkpt lat="51.7568284180" lon="-1.8269712478"><ele>119.34</ele><time>2015-11-11T10:24:46Z</time></trkpt><trkpt lat="51.7567732651" lon="-1.8269721698"><ele>120.30</ele><time>2015-11-11T10:24:54Z</time></trkpt><trkpt lat="51.7567249015" lon="-1.8269258179"><ele>120.78</ele><time>2015-11-11T10:24:59Z</time></trkpt><trkpt lat="51.7566406634" lon="-1.8268933799"><ele>121.74</ele><time>2015-11-11T10:25:06Z</time></trkpt><trkpt lat="51.7564690020" lon="-1.8268421665"><ele>122.71</ele><time>2015-11-11T10:25:20Z</time></trkpt><trkpt lat="51.7564249970" lon="-1.8268160988"><ele>122.22</ele><time>2015-11-11T10:25:35Z</time></trkpt><trkpt lat="51.7563908827" lon="-1.8268161826"><ele>121.74</ele><time>2015-11-11T10:25:53Z</time></trkpt><trkpt lat="51.7562725302" lon="-1.8268384784"><ele>120.78</ele><time>2015-11-11T10:26:07Z</time></trkpt><trkpt lat="51.7561272718" lon="-1.8268519733"><ele>119.34</ele><time>2015-11-11T10:26:24Z</time></trkpt><trkpt lat="51.7559727933" lon="-1.8268984929"><ele>118.38</ele><time>2015-11-11T10:26:41Z</time></trkpt><trkpt lat="51.7558479030" lon="-1.8269512989"><ele>116.46</ele><time>2015-11-11T10:26:54Z</time></trkpt><trkpt lat="51.7557308916" lon="-1.8269847427"><ele>116.46</ele><time>2015-11-11T10:27:06Z</time></trkpt><trkpt lat="51.7555733956" lon="-1.8270002492"><ele>115.01</ele><time>2015-11-11T10:27:21Z</time></trkpt><trkpt lat="51.7553897481" lon="-1.8271070346"><ele>114.53</ele><time>2015-11-11T10:27:41Z</time></trkpt><trkpt lat="51.7552081961" lon="-1.8271578290"><ele>113.57</ele><time>2015-11-11T10:27:59Z</time></trkpt><trkpt lat="51.7550716549" lon="-1.8272120599"><ele>113.09</ele><time>2015-11-11T10:28:14Z</time></trkpt><trkpt lat="51.7549527157" lon="-1.8272588309"><ele>113.09</ele><time>2015-11-11T10:28:28Z</time></trkpt><trkpt lat="51.7547771987" lon="-1.8272966333"><ele>113.57</ele><time>2015-11-11T10:28:46Z</time></trkpt><trkpt lat="51.7546118237" lon="-1.8273379561"><ele>112.61</ele><time>2015-11-11T10:29:01Z</time></trkpt><trkpt lat="51.7544440180" lon="-1.8274022453"><ele>113.09</ele><time>2015-11-11T10:29:20Z</time></trkpt><trkpt lat="51.7543491349" lon="-1.8274499383"><ele>113.09</ele><time>2015-11-11T10:29:36Z</time></trkpt><trkpt lat="51.7542844266" lon="-1.8274731562"><ele>113.09</ele><time>2015-11-11T10:29:42Z</time></trkpt><trkpt lat="51.7541330494" lon="-1.8275686260"><ele>112.61</ele><time>2015-11-11T10:29:58Z</time></trkpt><trkpt lat="51.7539691832" lon="-1.8276417162"><ele>112.61</ele><time>2015-11-11T10:30:16Z</time></trkpt><trkpt lat="51.7537924927" lon="-1.8277148902"><ele>113.09</ele><time>2015-11-11T10:30:33Z</time></trkpt><trkpt lat="51.7537100986" lon="-1.8277215119"><ele>113.09</ele><time>2015-11-11T10:30:49Z</time></trkpt><trkpt lat="51.7536264472" lon="-1.8277118728"><ele>113.09</ele><time>2015-11-11T10:31:03Z</time></trkpt><trkpt lat="51.7536339071" lon="-1.8277312350"><ele>113.09</ele><time>2015-11-11T10:31:21Z</time></trkpt><trkpt lat="51.7536288779" lon="-1.8277348392"><ele>113.09</ele><time>2015-11-11T10:31:27Z</time></trkpt><trkpt lat="51.7535953503" lon="-1.8277548719"><ele>113.09</ele><time>2015-11-11T10:31:31Z</time></trkpt><trkpt lat="51.7535348330" lon="-1.8277639244"><ele>113.57</ele><time>2015-11-11T10:31:36Z</time></trkpt><trkpt lat="51.7534274608" lon="-1.8277889024"><ele>113.09</ele><time>2015-11-11T10:31:45Z</time></trkpt><trkpt lat="51.7532210145" lon="-1.8278357573"><ele>112.61</ele><time>2015-11-11T10:32:03Z</time></trkpt><trkpt lat="51.7530814558" lon="-1.8278791755"><ele>112.61</ele><time>2015-11-11T10:32:18Z</time></trkpt><trkpt lat="51.7529307492" lon="-1.8279262818"><ele>113.57</ele><time>2015-11-11T10:32:33Z</time></trkpt><trkpt lat="51.7527781986" lon="-1.8279519305"><ele>113.57</ele><time>2015-11-11T10:32:50Z</time></trkpt><trkpt lat="51.7526129913" lon="-1.8279978633"><ele>115.98</ele><time>2015-11-11T10:33:08Z</time></trkpt><trkpt lat="51.7524877656" lon="-1.8280704506"><ele>117.42</ele><time>2015-11-11T10:33:25Z</time></trkpt><trkpt lat="51.7523528170" lon="-1.8281151261"><ele>118.86</ele><time>2015-11-11T10:33:40Z</time></trkpt><trkpt lat="51.7521937285" lon="-1.8281452172"><ele>121.26</ele><time>2015-11-11T10:33:57Z</time></trkpt><trkpt lat="51.7521042097" lon="-1.8281670939"><ele>122.22</ele><time>2015-11-11T10:34:10Z</time></trkpt><trkpt lat="51.7519867793" lon="-1.8281986099"><ele>124.63</ele><time>2015-11-11T10:34:24Z</time></trkpt><trkpt lat="51.7518833466" lon="-1.8282164633"><ele>126.07</ele><time>2015-11-11T10:34:38Z</time></trkpt><trkpt lat="51.7517470568" lon="-1.8282223307"><ele>127.99</ele><time>2015-11-11T10:34:53Z</time></trkpt><trkpt lat="51.7516851984" lon="-1.8282544333"><ele>128.47</ele><time>2015-11-11T10:35:07Z</time></trkpt><trkpt lat="51.7516826838" lon="-1.8282432854"><ele>128.47</ele><time>2015-11-11T10:35:24Z</time></trkpt><trkpt lat="51.7516634893" lon="-1.8282563612"><ele>128.95</ele><time>2015-11-11T10:35:45Z</time></trkpt><trkpt lat="51.7516348232" lon="-1.8282444589"><ele>128.95</ele><time>2015-11-11T10:35:54Z</time></trkpt><trkpt lat="51.7516089231" lon="-1.8282574508"><ele>129.43</ele><time>2015-11-11T10:35:56Z</time></trkpt><trkpt lat="51.7515053228" lon="-1.8282592110"><ele>129.43</ele><time>2015-11-11T10:36:08Z</time></trkpt><trkpt lat="51.7513795104" lon="-1.8281406909"><ele>129.92</ele><time>2015-11-11T10:36:22Z</time></trkpt><trkpt lat="51.7513676919" lon="-1.8281276152"><ele>129.92</ele><time>2015-11-11T10:36:23Z</time></trkpt><trkpt lat="51.7512977030" lon="-1.8279788364"><ele>129.92</ele><time>2015-11-11T10:36:38Z</time></trkpt><trkpt lat="51.7512102798" lon="-1.8278454803"><ele>129.92</ele><time>2015-11-11T10:36:51Z</time></trkpt><trkpt lat="51.7511434760" lon="-1.8277243618"><ele>129.43</ele><time>2015-11-11T10:37:02Z</time></trkpt><trkpt lat="51.7510480899" lon="-1.8275938556"><ele>129.92</ele><time>2015-11-11T10:37:16Z</time></trkpt><trkpt lat="51.7509602476" lon="-1.8274593260"><ele>129.92</ele><time>2015-11-11T10:37:28Z</time></trkpt><trkpt lat="51.7509348504" lon="-1.8274159078"><ele>129.92</ele><time>2015-11-11T10:37:31Z</time></trkpt><trkpt lat="51.7508421466" lon="-1.8272279855"><ele>130.40</ele><time>2015-11-11T10:37:45Z</time></trkpt><trkpt lat="51.7507258058" lon="-1.8270642869"><ele>130.88</ele><time>2015-11-11T10:37:58Z</time></trkpt><trkpt lat="51.7506638635" lon="-1.8269266561"><ele>130.88</ele><time>2015-11-11T10:38:08Z</time></trkpt><trkpt lat="51.7506465130" lon="-1.8268930446"><ele>129.92</ele><time>2015-11-11T10:38:11Z</time></trkpt><trkpt lat="51.7505826429" lon="-1.8267248198"><ele>130.40</ele><time>2015-11-11T10:38:25Z</time></trkpt><trkpt lat="51.7505231313" lon="-1.8265487999"><ele>129.92</ele><time>2015-11-11T10:38:38Z</time></trkpt><trkpt lat="51.7505222932" lon="-1.8265258335"><ele>131.36</ele><time>2015-11-11T10:38:51Z</time></trkpt><trkpt lat="51.7505298369" lon="-1.8265153561"><ele>127.99</ele><time>2015-11-11T10:39:08Z</time></trkpt><trkpt lat="51.7505254783" lon="-1.8265137635"><ele>131.84</ele><time>2015-11-11T10:39:11Z</time></trkpt><trkpt lat="51.7505407333" lon="-1.8264796492"><ele>124.15</ele><time>2015-11-11T10:39:22Z</time></trkpt><trkpt lat="51.7505407333" lon="-1.8264814094"><ele>130.88</ele><time>2015-11-11T10:39:23Z</time></trkpt><trkpt lat="51.7505070381" lon="-1.8264765479"><ele>131.36</ele><time>2015-11-11T10:39:47Z</time></trkpt><trkpt lat="51.7505021766" lon="-1.8264720216"><ele>127.03</ele><time>2015-11-11T10:40:01Z</time></trkpt><trkpt lat="51.7505020089" lon="-1.8264709320"><ele>130.40</ele><time>2015-11-11T10:40:02Z</time></trkpt><trkpt lat="51.7504068743" lon="-1.8262651563"><ele>130.40</ele><time>2015-11-11T10:40:18Z</time></trkpt><trkpt lat="51.7503950559" lon="-1.8262130208"><ele>135.20</ele><time>2015-11-11T10:40:22Z</time></trkpt><trkpt lat="51.7503896914" lon="-1.8261990231"><ele>130.40</ele><time>2015-11-11T10:40:23Z</time></trkpt><trkpt lat="51.7503829859" lon="-1.8261895515"><ele>129.92</ele><time>2015-11-11T10:40:24Z</time></trkpt><trkpt lat="51.7502486240" lon="-1.8258531019"><ele>129.92</ele><time>2015-11-11T10:40:45Z</time></trkpt><trkpt lat="51.7502312735" lon="-1.8258068338"><ele>131.36</ele><time>2015-11-11T10:40:48Z</time></trkpt><trkpt lat="51.7501646373" lon="-1.8256464042"><ele>128.95</ele><time>2015-11-11T10:40:59Z</time></trkpt><trkpt lat="51.7501180340" lon="-1.8254805263"><ele>128.47</ele><time>2015-11-11T10:41:09Z</time></trkpt><trkpt lat="51.7500924692" lon="-1.8253428116"><ele>127.99</ele><time>2015-11-11T10:41:16Z</time></trkpt><trkpt lat="51.7499890365" lon="-1.8249785341"><ele>127.03</ele><time>2015-11-11T10:41:38Z</time></trkpt><trkpt lat="51.7499126773" lon="-1.8247957248"><ele>128.47</ele><time>2015-11-11T10:41:48Z</time></trkpt><trkpt lat="51.7498957459" lon="-1.8247568328"><ele>125.11</ele><time>2015-11-11T10:41:50Z</time></trkpt><trkpt lat="51.7498680018" lon="-1.8245641328"><ele>128.47</ele><time>2015-11-11T10:41:59Z</time></trkpt><trkpt lat="51.7498505674" lon="-1.8244990055"><ele>123.67</ele><time>2015-11-11T10:42:02Z</time></trkpt><trkpt lat="51.7497539241" lon="-1.8240996078"><ele>124.15</ele><time>2015-11-11T10:42:23Z</time></trkpt><trkpt lat="51.7497477215" lon="-1.8240847718"><ele>124.63</ele><time>2015-11-11T10:42:24Z</time></trkpt><trkpt lat="51.7497163732" lon="-1.8240033835"><ele>122.71</ele><time>2015-11-11T10:42:29Z</time></trkpt><trkpt lat="51.7496907245" lon="-1.8239126075"><ele>124.63</ele><time>2015-11-11T10:42:34Z</time></trkpt><trkpt lat="51.7496571131" lon="-1.8238171376"><ele>120.30</ele><time>2015-11-11T10:42:40Z</time></trkpt><trkpt lat="51.7496507429" lon="-1.8238069955"><ele>121.26</ele><time>2015-11-11T10:42:41Z</time></trkpt><trkpt lat="51.7496431991" lon="-1.8237774074"><ele>122.71</ele><time>2015-11-11T10:42:43Z</time></trkpt><trkpt lat="51.7495582905" lon="-1.8235186581"><ele>124.15</ele><time>2015-11-11T10:42:57Z</time></trkpt><trkpt lat="51.7495550215" lon="-1.8234754074"><ele>120.78</ele><time>2015-11-11T10:42:59Z</time></trkpt><trkpt lat="51.7495504953" lon="-1.8234553747"><ele>124.15</ele><time>2015-11-11T10:43:00Z</time></trkpt><trkpt lat="51.7495176382" lon="-1.8232939392"><ele>119.82</ele><time>2015-11-11T10:43:09Z</time></trkpt><trkpt lat="51.7495130282" lon="-1.8232793547"><ele>122.22</ele><time>2015-11-11T10:43:10Z</time></trkpt><trkpt lat="51.7494292930" lon="-1.8229962140"><ele>121.74</ele><time>2015-11-11T10:43:28Z</time></trkpt><trkpt lat="51.7493433785" lon="-1.8228321802"><ele>120.78</ele><time>2015-11-11T10:43:40Z</time></trkpt><trkpt lat="51.7493122816" lon="-1.8226686493"><ele>124.15</ele><time>2015-11-11T10:43:51Z</time></trkpt><trkpt lat="51.7493092641" lon="-1.8226571660"><ele>120.78</ele><time>2015-11-11T10:43:52Z</time></trkpt><trkpt lat="51.7493008822" lon="-1.8226170167"><ele>124.63</ele><time>2015-11-11T10:43:55Z</time></trkpt><trkpt lat="51.7492976971" lon="-1.8226037733"><ele>120.30</ele><time>2015-11-11T10:43:56Z</time></trkpt><trkpt lat="51.7492881417" lon="-1.8225679826"><ele>124.63</ele><time>2015-11-11T10:43:59Z</time></trkpt><trkpt lat="51.7492782511" lon="-1.8225335330"><ele>121.74</ele><time>2015-11-11T10:44:02Z</time></trkpt><trkpt lat="51.7492756527" lon="-1.8225214630"><ele>122.22</ele><time>2015-11-11T10:44:03Z</time></trkpt><trkpt lat="51.7492421251" lon="-1.8224287592"><ele>124.15</ele><time>2015-11-11T10:44:10Z</time></trkpt><trkpt lat="51.7492380179" lon="-1.8223958183"><ele>120.78</ele><time>2015-11-11T10:44:12Z</time></trkpt><trkpt lat="51.7492322344" lon="-1.8223608658"><ele>122.71</ele><time>2015-11-11T10:44:14Z</time></trkpt><trkpt lat="51.7492246907" lon="-1.8222995102"><ele>122.22</ele><time>2015-11-11T10:44:18Z</time></trkpt><trkpt lat="51.7491793446" lon="-1.8222063035"><ele>122.22</ele><time>2015-11-11T10:44:25Z</time></trkpt><trkpt lat="51.7491689511" lon="-1.8221736979"><ele>123.19</ele><time>2015-11-11T10:44:27Z</time></trkpt><trkpt lat="51.7491651792" lon="-1.8221375719"><ele>121.74</ele><time>2015-11-11T10:44:29Z</time></trkpt><trkpt lat="51.7490348406" lon="-1.8218276091"><ele>121.26</ele><time>2015-11-11T10:44:52Z</time></trkpt><trkpt lat="51.7489533685" lon="-1.8216122780"><ele>117.90</ele><time>2015-11-11T10:45:06Z</time></trkpt><trkpt lat="51.7489459086" lon="-1.8215849530"><ele>121.74</ele><time>2015-11-11T10:45:07Z</time></trkpt><trkpt lat="51.7489311565" lon="-1.8215451390"><ele>117.42</ele><time>2015-11-11T10:45:12Z</time></trkpt><trkpt lat="51.7489343416" lon="-1.8215380982"><ele>121.26</ele><time>2015-11-11T10:45:13Z</time></trkpt><trkpt lat="51.7488889117" lon="-1.8212936819"><ele>119.34</ele><time>2015-11-11T10:45:27Z</time></trkpt><trkpt lat="51.7488619220" lon="-1.8212044146"><ele>118.86</ele><time>2015-11-11T10:45:32Z</time></trkpt><trkpt lat="51.7488216888" lon="-1.8211045861"><ele>118.38</ele><time>2015-11-11T10:45:39Z</time></trkpt><trkpt lat="51.7487973813" lon="-1.8210748304"><ele>119.34</ele><time>2015-11-11T10:45:42Z</time></trkpt><trkpt lat="51.7487836350" lon="-1.8210537080"><ele>117.90</ele><time>2015-11-11T10:45:44Z</time></trkpt><trkpt lat="51.7486927751" lon="-1.8209313322"><ele>116.94</ele><time>2015-11-11T10:46:05Z</time></trkpt><trkpt lat="51.7486692220" lon="-1.8209019117"><ele>116.94</ele><time>2015-11-11T10:46:27Z</time></trkpt><trkpt lat="51.7486620136" lon="-1.8208934460"><ele>114.53</ele><time>2015-11-11T10:46:32Z</time></trkpt><trkpt lat="51.7486595828" lon="-1.8208874948"><ele>114.05</ele><time>2015-11-11T10:46:36Z</time></trkpt><trkpt lat="51.7485776916" lon="-1.8207842298"><ele>111.65</ele><time>2015-11-11T10:46:55Z</time></trkpt><trkpt lat="51.7485139892" lon="-1.8207198568"><ele>107.32</ele><time>2015-11-11T10:47:04Z</time></trkpt><trkpt lat="51.7485125642" lon="-1.8207172584"><ele>110.69</ele><time>2015-11-11T10:47:05Z</time></trkpt><trkpt lat="51.7485121451" lon="-1.8207167555"><ele>104.92</ele><time>2015-11-11T10:47:06Z</time></trkpt><trkpt lat="51.7485115584" lon="-1.8207162526"><ele>108.77</ele><time>2015-11-11T10:47:07Z</time></trkpt><trkpt lat="51.7485103011" lon="-1.8207135703"><ele>113.57</ele><time>2015-11-11T10:47:08Z</time></trkpt><trkpt lat="51.7485099658" lon="-1.8207128998"><ele>111.17</ele><time>2015-11-11T10:47:09Z</time></trkpt><trkpt lat="51.7485061940" lon="-1.8207109720"><ele>110.21</ele><time>2015-11-11T10:47:11Z</time></trkpt><trkpt lat="51.7484445870" lon="-1.8207303341"><ele>106.84</ele><time>2015-11-11T10:47:30Z</time></trkpt><trkpt lat="51.7484442517" lon="-1.8207297474"><ele>115.98</ele><time>2015-11-11T10:47:32Z</time></trkpt><trkpt lat="51.7484426592" lon="-1.8207294960"><ele>112.61</ele><time>2015-11-11T10:47:33Z</time></trkpt><trkpt lat="51.7484433297" lon="-1.8207274843"><ele>110.21</ele><time>2015-11-11T10:47:35Z</time></trkpt><trkpt lat="51.7484445870" lon="-1.8207254726"><ele>104.44</ele><time>2015-11-11T10:47:37Z</time></trkpt><trkpt lat="51.7484451737" lon="-1.8207243830"><ele>109.73</ele><time>2015-11-11T10:47:38Z</time></trkpt><trkpt lat="51.7484461796" lon="-1.8207223713"><ele>110.69</ele><time>2015-11-11T10:47:40Z</time></trkpt><trkpt lat="51.7484469339" lon="-1.8207216170"><ele>117.42</ele><time>2015-11-11T10:47:43Z</time></trkpt><trkpt lat="51.7484475207" lon="-1.8207213655"><ele>111.17</ele><time>2015-11-11T10:47:44Z</time></trkpt><trkpt lat="51.7484478559" lon="-1.8206907716"><ele>109.73</ele><time>2015-11-11T10:48:08Z</time></trkpt><trkpt lat="51.7484467663" lon="-1.8206899334"><ele>108.77</ele><time>2015-11-11T10:48:13Z</time></trkpt><trkpt lat="51.7483888473" lon="-1.8205815554"><ele>107.32</ele><time>2015-11-11T10:48:21Z</time></trkpt><trkpt lat="51.7483516317" lon="-1.8205413222"><ele>109.25</ele><time>2015-11-11T10:48:24Z</time></trkpt><trkpt lat="51.7483366281" lon="-1.8205165956"><ele>105.88</ele><time>2015-11-11T10:48:26Z</time></trkpt><trkpt lat="51.7483121529" lon="-1.8204720039"><ele>109.73</ele><time>2015-11-11T10:48:31Z</time></trkpt><trkpt lat="51.7483026814" lon="-1.8204457685"><ele>106.36</ele><time>2015-11-11T10:48:33Z</time></trkpt><trkpt lat="51.7483023461" lon="-1.8204322737"><ele>107.32</ele><time>2015-11-11T10:48:34Z</time></trkpt><trkpt lat="51.7482995801" lon="-1.8203519750"><ele>110.69</ele><time>2015-11-11T10:48:50Z</time></trkpt><trkpt lat="51.7482968140" lon="-1.8203482032"><ele>103.00</ele><time>2015-11-11T10:48:51Z</time></trkpt><trkpt lat="51.7482938804" lon="-1.8203416653"><ele>114.53</ele><time>2015-11-11T10:48:52Z</time></trkpt><trkpt lat="51.7482886836" lon="-1.8203362171"><ele>108.29</ele><time>2015-11-11T10:48:53Z</time></trkpt><trkpt lat="51.7482471932" lon="-1.8203149270"><ele>107.81</ele><time>2015-11-11T10:49:12Z</time></trkpt><trkpt lat="51.7481735162" lon="-1.8202535715"><ele>107.81</ele><time>2015-11-11T10:49:28Z</time></trkpt><trkpt lat="51.7481356300" lon="-1.8201932218"><ele>106.84</ele><time>2015-11-11T10:49:51Z</time></trkpt><trkpt lat="51.7480741069" lon="-1.8200584408"><ele>107.32</ele><time>2015-11-11T10:50:08Z</time></trkpt><trkpt lat="51.7480760347" lon="-1.8200603686"><ele>101.56</ele><time>2015-11-11T10:50:11Z</time></trkpt><trkpt lat="51.7480766214" lon="-1.8200589437"><ele>103.00</ele><time>2015-11-11T10:50:12Z</time></trkpt><trkpt lat="51.7480788007" lon="-1.8200545851"><ele>107.32</ele><time>2015-11-11T10:50:14Z</time></trkpt><trkpt lat="51.7480790522" lon="-1.8200538307"><ele>107.32</ele><time>2015-11-11T10:50:15Z</time></trkpt><trkpt lat="51.7480748612" lon="-1.8200902082"><ele>106.84</ele><time>2015-11-11T10:50:44Z</time></trkpt><trkpt lat="51.7480723467" lon="-1.8200932257"><ele>107.32</ele><time>2015-11-11T10:51:10Z</time></trkpt><trkpt lat="51.7480834946" lon="-1.8200900406"><ele>106.84</ele><time>2015-11-11T10:51:39Z</time></trkpt><trkpt lat="51.7480852548" lon="-1.8200868554"><ele>115.01</ele><time>2015-11-11T10:52:01Z</time></trkpt><trkpt lat="51.7480857577" lon="-1.8200869393"><ele>96.75</ele><time>2015-11-11T10:52:02Z</time></trkpt><trkpt lat="51.7480850872" lon="-1.8200863525"><ele>111.17</ele><time>2015-11-11T10:52:03Z</time></trkpt><trkpt lat="51.7480844166" lon="-1.8200859334"><ele>108.29</ele><time>2015-11-11T10:52:04Z</time></trkpt><trkpt lat="51.7480768729" lon="-1.8200797308"><ele>107.32</ele><time>2015-11-11T10:52:06Z</time></trkpt><trkpt lat="51.7479803134" lon="-1.8199740350"><ele>108.77</ele><time>2015-11-11T10:52:26Z</time></trkpt><trkpt lat="51.7478875257" lon="-1.8198028766"><ele>111.17</ele><time>2015-11-11T10:52:40Z</time></trkpt><trkpt lat="51.7478800658" lon="-1.8197885435"><ele>107.32</ele><time>2015-11-11T10:52:48Z</time></trkpt><trkpt lat="51.7478796467" lon="-1.8197804969"><ele>111.17</ele><time>2015-11-11T10:52:49Z</time></trkpt><trkpt lat="51.7477840092" lon="-1.8197030481"><ele>112.61</ele><time>2015-11-11T10:53:02Z</time></trkpt><trkpt lat="51.7477650661" lon="-1.8196767289"><ele>113.09</ele><time>2015-11-11T10:53:04Z</time></trkpt><trkpt lat="51.7477296945" lon="-1.8196403515"><ele>113.09</ele><time>2015-11-11T10:53:08Z</time></trkpt><trkpt lat="51.7476919759" lon="-1.8196277786"><ele>116.46</ele><time>2015-11-11T10:53:18Z</time></trkpt><trkpt lat="51.7476926465" lon="-1.8196274433"><ele>111.17</ele><time>2015-11-11T10:53:19Z</time></trkpt><trkpt lat="51.7476925626" lon="-1.8196265213"><ele>114.53</ele><time>2015-11-11T10:53:20Z</time></trkpt><trkpt lat="51.7476173770" lon="-1.8194771558"><ele>117.42</ele><time>2015-11-11T10:53:38Z</time></trkpt><trkpt lat="51.7476013675" lon="-1.8195664231"><ele>116.46</ele><time>2015-11-11T10:53:57Z</time></trkpt><trkpt lat="51.7476302851" lon="-1.8193488289"><ele>121.26</ele><time>2015-11-11T10:54:09Z</time></trkpt><trkpt lat="51.7476275191" lon="-1.8193308916"><ele>117.90</ele><time>2015-11-11T10:54:10Z</time></trkpt><trkpt lat="51.7476011161" lon="-1.8192456476"><ele>121.74</ele><time>2015-11-11T10:54:16Z</time></trkpt><trkpt lat="51.7475792393" lon="-1.8192058336"><ele>118.38</ele><time>2015-11-11T10:54:18Z</time></trkpt><trkpt lat="51.7475563567" lon="-1.8191663548"><ele>120.30</ele><time>2015-11-11T10:54:20Z</time></trkpt><trkpt lat="51.7474354059" lon="-1.8189490959"><ele>123.67</ele><time>2015-11-11T10:54:37Z</time></trkpt><trkpt lat="51.7474293709" lon="-1.8189358525"><ele>120.78</ele><time>2015-11-11T10:54:38Z</time></trkpt><trkpt lat="51.7474050634" lon="-1.8189005647"><ele>123.67</ele><time>2015-11-11T10:54:41Z</time></trkpt><trkpt lat="51.7473061569" lon="-1.8187821284"><ele>127.51</ele><time>2015-11-11T10:54:49Z</time></trkpt><trkpt lat="51.7472997867" lon="-1.8187722377"><ele>123.19</ele><time>2015-11-11T10:54:50Z</time></trkpt><trkpt lat="51.7472707015" lon="-1.8187347706"><ele>127.51</ele><time>2015-11-11T10:54:57Z</time></trkpt><trkpt lat="51.7472424544" lon="-1.8187009916"><ele>127.03</ele><time>2015-11-11T10:55:05Z</time></trkpt><trkpt lat="51.7471849546" lon="-1.8186074495"><ele>130.88</ele><time>2015-11-11T10:55:13Z</time></trkpt><trkpt lat="51.7471702863" lon="-1.8185959663"><ele>127.03</ele><time>2015-11-11T10:55:14Z</time></trkpt><trkpt lat="51.7470938433" lon="-1.8185619358"><ele>130.88</ele><time>2015-11-11T10:55:23Z</time></trkpt><trkpt lat="51.7470401153" lon="-1.8184833135"><ele>126.55</ele><time>2015-11-11T10:55:38Z</time></trkpt><trkpt lat="51.7470257822" lon="-1.8184699863"><ele>129.92</ele><time>2015-11-11T10:55:39Z</time></trkpt><trkpt lat="51.7469439749" lon="-1.8183735106"><ele>131.84</ele><time>2015-11-11T10:55:51Z</time></trkpt><trkpt lat="51.7466897517" lon="-1.8180471193"><ele>134.72</ele><time>2015-11-11T10:56:16Z</time></trkpt><trkpt lat="51.7466847226" lon="-1.8180383183"><ele>131.36</ele><time>2015-11-11T10:56:17Z</time></trkpt><trkpt lat="51.7466612533" lon="-1.8179988395"><ele>134.24</ele><time>2015-11-11T10:56:20Z</time></trkpt><trkpt lat="51.7466504406" lon="-1.8179819081"><ele>134.72</ele><time>2015-11-11T10:56:21Z</time></trkpt><trkpt lat="51.7465361953" lon="-1.8178230710"><ele>135.20</ele><time>2015-11-11T10:56:42Z</time></trkpt><trkpt lat="51.7464620154" lon="-1.8177629728"><ele>134.72</ele><time>2015-11-11T10:57:03Z</time></trkpt><trkpt lat="51.7464201897" lon="-1.8177032098"><ele>134.72</ele><time>2015-11-11T10:57:27Z</time></trkpt><trkpt lat="51.7464026716" lon="-1.8177638110"><ele>135.68</ele><time>2015-11-11T10:57:33Z</time></trkpt><trkpt lat="51.7463941220" lon="-1.8178010266"><ele>134.72</ele><time>2015-11-11T10:57:35Z</time></trkpt><trkpt lat="51.7463912722" lon="-1.8178907968"><ele>133.76</ele><time>2015-11-11T10:58:03Z</time></trkpt><trkpt lat="51.7463990673" lon="-1.8178872764"><ele>134.24</ele><time>2015-11-11T10:58:26Z</time></trkpt><trkpt lat="51.7463988159" lon="-1.8178816605"><ele>134.24</ele><time>2015-11-11T10:58:31Z</time></trkpt><trkpt lat="51.7463770229" lon="-1.8178781401"><ele>133.76</ele><time>2015-11-11T10:58:52Z</time></trkpt><trkpt lat="51.7463824712" lon="-1.8178791460"><ele>134.72</ele><time>2015-11-11T10:59:18Z</time></trkpt><trkpt lat="51.7463802081" lon="-1.8178820796"><ele>135.20</ele><time>2015-11-11T10:59:26Z</time></trkpt><trkpt lat="51.7463789508" lon="-1.8179296050"><ele>134.24</ele><time>2015-11-11T10:59:55Z</time></trkpt><trkpt lat="51.7463966366" lon="-1.8179287668"><ele>134.72</ele><time>2015-11-11T11:00:18Z</time></trkpt><trkpt lat="51.7463968880" lon="-1.8179285992"><ele>134.24</ele><time>2015-11-11T11:00:42Z</time></trkpt><trkpt lat="51.7464149091" lon="-1.8179175351"><ele>134.24</ele><time>2015-11-11T11:01:10Z</time></trkpt><trkpt lat="51.7464256380" lon="-1.8179170322"><ele>134.24</ele><time>2015-11-11T11:01:35Z</time></trkpt><trkpt lat="51.7464268953" lon="-1.8179140147"><ele>133.76</ele><time>2015-11-11T11:02:07Z</time></trkpt><trkpt lat="51.7464168370" lon="-1.8179294374"><ele>133.76</ele><time>2015-11-11T11:02:33Z</time></trkpt><trkpt lat="51.7464184295" lon="-1.8179425970"><ele>133.76</ele><time>2015-11-11T11:03:03Z</time></trkpt><trkpt lat="51.7464150768" lon="-1.8179546669"><ele>133.28</ele><time>2015-11-11T11:03:31Z</time></trkpt><trkpt lat="51.7464113887" lon="-1.8179609533"><ele>133.28</ele><time>2015-11-11T11:04:02Z</time></trkpt><trkpt lat="51.7464062758" lon="-1.8179792259"><ele>132.80</ele><time>2015-11-11T11:04:23Z</time></trkpt><trkpt lat="51.7463961337" lon="-1.8179772981"><ele>132.80</ele><time>2015-11-11T11:04:54Z</time></trkpt><trkpt lat="51.7463964690" lon="-1.8179750349"><ele>132.80</ele><time>2015-11-11T11:05:23Z</time></trkpt><trkpt lat="51.7464099638" lon="-1.8179376516"><ele>132.80</ele><time>2015-11-11T11:05:44Z</time></trkpt><trkpt lat="51.7464020848" lon="-1.8179561757"><ele>132.80</ele><time>2015-11-11T11:06:13Z</time></trkpt><trkpt lat="51.7464020010" lon="-1.8179554213"><ele>138.57</ele><time>2015-11-11T11:06:14Z</time></trkpt><trkpt lat="51.7464018334" lon="-1.8179550860"><ele>130.88</ele><time>2015-11-11T11:06:15Z</time></trkpt><trkpt lat="51.7464017496" lon="-1.8179547507"><ele>131.36</ele><time>2015-11-11T11:06:16Z</time></trkpt><trkpt lat="51.7464042641" lon="-1.8179514818"><ele>132.80</ele><time>2015-11-11T11:06:18Z</time></trkpt><trkpt lat="51.7464036774" lon="-1.8179476261"><ele>132.80</ele><time>2015-11-11T11:06:41Z</time></trkpt><trkpt lat="51.7464012466" lon="-1.8179523200"><ele>132.80</ele><time>2015-11-11T11:06:57Z</time></trkpt><trkpt lat="51.7463844828" lon="-1.8178803194"><ele>132.80</ele><time>2015-11-11T11:07:16Z</time></trkpt><trkpt lat="51.7463973910" lon="-1.8179653957"><ele>133.28</ele><time>2015-11-11T11:07:25Z</time></trkpt><trkpt lat="51.7464033421" lon="-1.8179503921"><ele>132.80</ele><time>2015-11-11T11:07:45Z</time></trkpt><trkpt lat="51.7464494426" lon="-1.8180221412"><ele>132.80</ele><time>2015-11-11T11:08:06Z</time></trkpt><trkpt lat="51.7464424018" lon="-1.8180331215"><ele>136.64</ele><time>2015-11-11T11:08:22Z</time></trkpt><trkpt lat="51.7464403901" lon="-1.8180275895"><ele>128.95</ele><time>2015-11-11T11:08:23Z</time></trkpt><trkpt lat="51.7464381270" lon="-1.8180207163"><ele>134.24</ele><time>2015-11-11T11:08:24Z</time></trkpt><trkpt lat="51.7464354448" lon="-1.8180052098"><ele>130.40</ele><time>2015-11-11T11:08:26Z</time></trkpt><trkpt lat="51.7464337684" lon="-1.8179976661"><ele>135.20</ele><time>2015-11-11T11:08:27Z</time></trkpt><trkpt lat="51.7464216147" lon="-1.8179570977"><ele>129.43</ele><time>2015-11-11T11:08:29Z</time></trkpt><trkpt lat="51.7464121431" lon="-1.8179275095"><ele>133.76</ele><time>2015-11-11T11:08:30Z</time></trkpt><trkpt lat="51.7464026716" lon="-1.8178985082"><ele>137.13</ele><time>2015-11-11T11:08:31Z</time></trkpt><trkpt lat="51.7463921104" lon="-1.8178732786"><ele>127.99</ele><time>2015-11-11T11:08:32Z</time></trkpt><trkpt lat="51.7463817168" lon="-1.8178482167"><ele>134.24</ele><time>2015-11-11T11:08:33Z</time></trkpt><trkpt lat="51.7463204451" lon="-1.8178524077"><ele>134.72</ele><time>2015-11-11T11:08:40Z</time></trkpt><trkpt lat="51.7463130690" lon="-1.8178582750"><ele>130.40</ele><time>2015-11-11T11:08:41Z</time></trkpt><trkpt lat="51.7463075370" lon="-1.8178621307"><ele>133.76</ele><time>2015-11-11T11:08:42Z</time></trkpt><trkpt lat="51.7462951317" lon="-1.8178671598"><ele>129.43</ele><time>2015-11-11T11:08:44Z</time></trkpt><trkpt lat="51.7462868337" lon="-1.8178717699"><ele>133.76</ele><time>2015-11-11T11:08:45Z</time></trkpt><trkpt lat="51.7462786194" lon="-1.8178762123"><ele>139.05</ele><time>2015-11-11T11:08:46Z</time></trkpt><trkpt lat="51.7462738417" lon="-1.8178793974"><ele>131.36</ele><time>2015-11-11T11:08:47Z</time></trkpt><trkpt lat="51.7462607659" lon="-1.8178902101"><ele>137.13</ele><time>2015-11-11T11:08:49Z</time></trkpt><trkpt lat="51.7462569941" lon="-1.8178947363"><ele>130.40</ele><time>2015-11-11T11:08:50Z</time></trkpt><trkpt lat="51.7462443374" lon="-1.8179059681"><ele>133.76</ele><time>2015-11-11T11:08:52Z</time></trkpt><trkpt lat="51.7462388892" lon="-1.8179120868"><ele>137.13</ele><time>2015-11-11T11:08:53Z</time></trkpt><trkpt lat="51.7462324351" lon="-1.8179187924"><ele>130.40</ele><time>2015-11-11T11:08:54Z</time></trkpt><trkpt lat="51.7462253943" lon="-1.8179289345"><ele>133.76</ele><time>2015-11-11T11:08:55Z</time></trkpt><trkpt lat="51.7462041881" lon="-1.8179407530"><ele>129.92</ele><time>2015-11-11T11:08:57Z</time></trkpt><trkpt lat="51.7461935431" lon="-1.8179458659"><ele>134.24</ele><time>2015-11-11T11:08:58Z</time></trkpt><trkpt lat="51.7461050302" lon="-1.8180442695"><ele>137.61</ele><time>2015-11-11T11:09:12Z</time></trkpt><trkpt lat="51.7460974865" lon="-1.8180532381"><ele>133.28</ele><time>2015-11-11T11:09:13Z</time></trkpt><trkpt lat="51.7460492905" lon="-1.8180956505"><ele>133.76</ele><time>2015-11-11T11:09:20Z</time></trkpt><trkpt lat="51.7459720932" lon="-1.8181618676"><ele>134.72</ele><time>2015-11-11T11:09:30Z</time></trkpt><trkpt lat="51.7459394038" lon="-1.8181668967"><ele>138.57</ele><time>2015-11-11T11:09:34Z</time></trkpt><trkpt lat="51.7459317762" lon="-1.8181696627"><ele>133.28</ele><time>2015-11-11T11:09:35Z</time></trkpt><trkpt lat="51.7458970752" lon="-1.8181716744"><ele>137.13</ele><time>2015-11-11T11:09:38Z</time></trkpt><trkpt lat="51.7458896991" lon="-1.8181705847"><ele>132.80</ele><time>2015-11-11T11:09:39Z</time></trkpt><trkpt lat="51.7458697502" lon="-1.8181773741"><ele>136.16</ele><time>2015-11-11T11:09:42Z</time></trkpt><trkpt lat="51.7458428442" lon="-1.8181823194"><ele>135.68</ele><time>2015-11-11T11:09:46Z</time></trkpt><trkpt lat="51.7458307743" lon="-1.8181785475"><ele>134.24</ele><time>2015-11-11T11:09:48Z</time></trkpt><trkpt lat="51.7457973305" lon="-1.8181588501"><ele>136.64</ele><time>2015-11-11T11:09:53Z</time></trkpt><trkpt lat="51.7457908764" lon="-1.8181573413"><ele>132.32</ele><time>2015-11-11T11:09:54Z</time></trkpt><trkpt lat="51.7457832489" lon="-1.8181535695"><ele>134.72</ele><time>2015-11-11T11:09:55Z</time></trkpt><trkpt lat="51.7457415909" lon="-1.8181305192"><ele>138.09</ele><time>2015-11-11T11:10:00Z</time></trkpt><trkpt lat="51.7457329575" lon="-1.8181269988"><ele>131.84</ele><time>2015-11-11T11:10:01Z</time></trkpt><trkpt lat="51.7457224801" lon="-1.8181240652"><ele>135.68</ele><time>2015-11-11T11:10:02Z</time></trkpt><trkpt lat="51.7457024474" lon="-1.8181250710"><ele>136.64</ele><time>2015-11-11T11:10:04Z</time></trkpt><trkpt lat="51.7456849292" lon="-1.8181232270"><ele>133.28</ele><time>2015-11-11T11:10:06Z</time></trkpt><trkpt lat="51.7456762958" lon="-1.8181179464"><ele>136.16</ele><time>2015-11-11T11:10:07Z</time></trkpt><trkpt lat="51.7456519883" lon="-1.8180848379"><ele>135.20</ele><time>2015-11-11T11:10:10Z</time></trkpt><trkpt lat="51.7455774732" lon="-1.8180628773"><ele>137.13</ele><time>2015-11-11T11:10:17Z</time></trkpt><trkpt lat="51.7455598712" lon="-1.8180599436"><ele>135.68</ele><time>2015-11-11T11:10:19Z</time></trkpt><trkpt lat="51.7455520760" lon="-1.8180570938"><ele>138.57</ele><time>2015-11-11T11:10:20Z</time></trkpt><trkpt lat="51.7455428559" lon="-1.8180537410"><ele>134.24</ele><time>2015-11-11T11:10:21Z</time></trkpt><trkpt lat="51.7455142736" lon="-1.8180401623"><ele>137.13</ele><time>2015-11-11T11:10:24Z</time></trkpt><trkpt lat="51.7455057241" lon="-1.8180363066"><ele>133.76</ele><time>2015-11-11T11:10:25Z</time></trkpt><trkpt lat="51.7454519961" lon="-1.8180182017"><ele>138.09</ele><time>2015-11-11T11:10:32Z</time></trkpt><trkpt lat="51.7454510741" lon="-1.8180183694"><ele>134.24</ele><time>2015-11-11T11:10:34Z</time></trkpt><trkpt lat="51.7454499006" lon="-1.8180175312"><ele>137.61</ele><time>2015-11-11T11:10:36Z</time></trkpt><trkpt lat="51.7454451229" lon="-1.8180203810"><ele>134.24</ele><time>2015-11-11T11:10:39Z</time></trkpt><trkpt lat="51.7454241682" lon="-1.8180233985"><ele>136.16</ele><time>2015-11-11T11:10:41Z</time></trkpt><trkpt lat="51.7453976814" lon="-1.8180155195"><ele>136.64</ele><time>2015-11-11T11:10:46Z</time></trkpt><trkpt lat="51.7453660816" lon="-1.8180004321"><ele>140.49</ele><time>2015-11-11T11:10:49Z</time></trkpt><trkpt lat="51.7453576159" lon="-1.8179970793"><ele>136.16</ele><time>2015-11-11T11:10:50Z</time></trkpt><trkpt lat="51.7453480605" lon="-1.8179944810"><ele>139.53</ele><time>2015-11-11T11:10:51Z</time></trkpt><trkpt lat="51.7453358229" lon="-1.8179933913"><ele>134.24</ele><time>2015-11-11T11:10:52Z</time></trkpt><trkpt lat="51.7452733777" lon="-1.8179860990"><ele>137.61</ele><time>2015-11-11T11:10:58Z</time></trkpt><trkpt lat="51.7452167161" lon="-1.8179664016"><ele>137.61</ele><time>2015-11-11T11:11:03Z</time></trkpt><trkpt lat="51.7452072445" lon="-1.8179599475"><ele>133.28</ele><time>2015-11-11T11:11:04Z</time></trkpt><trkpt lat="51.7451969348" lon="-1.8179577682"><ele>137.13</ele><time>2015-11-11T11:11:05Z</time></trkpt><trkpt lat="51.7450756487" lon="-1.8179388251"><ele>135.20</ele><time>2015-11-11T11:11:20Z</time></trkpt><trkpt lat="51.7450427916" lon="-1.8179211393"><ele>138.09</ele><time>2015-11-11T11:11:24Z</time></trkpt><trkpt lat="51.7450363375" lon="-1.8179200497"><ele>137.13</ele><time>2015-11-11T11:11:25Z</time></trkpt><trkpt lat="51.7450234294" lon="-1.8179158587"><ele>135.68</ele><time>2015-11-11T11:11:27Z</time></trkpt><trkpt lat="51.7449885607" lon="-1.8179042079"><ele>139.53</ele><time>2015-11-11T11:11:32Z</time></trkpt><trkpt lat="51.7449883092" lon="-1.8179050460"><ele>133.28</ele><time>2015-11-11T11:11:33Z</time></trkpt><trkpt lat="51.7449813522" lon="-1.8179032858"><ele>136.64</ele><time>2015-11-11T11:11:34Z</time></trkpt><trkpt lat="51.7449343298" lon="-1.8179063872"><ele>138.09</ele><time>2015-11-11T11:11:40Z</time></trkpt><trkpt lat="51.7449160572" lon="-1.8178972509"><ele>135.68</ele><time>2015-11-11T11:11:42Z</time></trkpt><trkpt lat="51.7448412906" lon="-1.8178539164"><ele>138.09</ele><time>2015-11-11T11:11:51Z</time></trkpt><trkpt lat="51.7448215932" lon="-1.8178510666"><ele>136.16</ele><time>2015-11-11T11:11:53Z</time></trkpt><trkpt lat="51.7446527816" lon="-1.8178244121"><ele>135.68</ele><time>2015-11-11T11:12:11Z</time></trkpt><trkpt lat="51.7445105407" lon="-1.8177840952"><ele>134.72</ele><time>2015-11-11T11:12:28Z</time></trkpt><trkpt lat="51.7443926074" lon="-1.8177717738"><ele>135.68</ele><time>2015-11-11T11:12:43Z</time></trkpt><trkpt lat="51.7442615982" lon="-1.8177118432"><ele>132.80</ele><time>2015-11-11T11:12:59Z</time></trkpt><trkpt lat="51.7442535516" lon="-1.8177012820"><ele>138.57</ele><time>2015-11-11T11:13:01Z</time></trkpt><trkpt lat="51.7442497797" lon="-1.8176988512"><ele>134.72</ele><time>2015-11-11T11:13:02Z</time></trkpt><trkpt lat="51.7441704869" lon="-1.8176784832"><ele>138.09</ele><time>2015-11-11T11:13:12Z</time></trkpt><trkpt lat="51.7441593390" lon="-1.8176773097"><ele>134.72</ele><time>2015-11-11T11:13:13Z</time></trkpt><trkpt lat="51.7440511286" lon="-1.8176630605"><ele>136.64</ele><time>2015-11-11T11:13:27Z</time></trkpt><trkpt lat="51.7439298425" lon="-1.8176532537"><ele>137.13</ele><time>2015-11-11T11:13:40Z</time></trkpt><trkpt lat="51.7438404076" lon="-1.8176221568"><ele>133.28</ele><time>2015-11-11T11:13:51Z</time></trkpt><trkpt lat="51.7438317742" lon="-1.8176234979"><ele>138.57</ele><time>2015-11-11T11:13:52Z</time></trkpt><trkpt lat="51.7438180279" lon="-1.8176184688"><ele>133.76</ele><time>2015-11-11T11:13:55Z</time></trkpt><trkpt lat="51.7437531520" lon="-1.8175900541"><ele>136.64</ele><time>2015-11-11T11:14:02Z</time></trkpt><trkpt lat="51.7437341250" lon="-1.8175817560"><ele>133.76</ele><time>2015-11-11T11:14:04Z</time></trkpt><trkpt lat="51.7436996754" lon="-1.8175724521"><ele>138.09</ele><time>2015-11-11T11:14:07Z</time></trkpt><trkpt lat="51.7436861806" lon="-1.8175693508"><ele>133.28</ele><time>2015-11-11T11:14:08Z</time></trkpt><trkpt lat="51.7436674889" lon="-1.8175630644"><ele>134.72</ele><time>2015-11-11T11:14:09Z</time></trkpt><trkpt lat="51.7436401639" lon="-1.8175435346"><ele>137.13</ele><time>2015-11-11T11:14:11Z</time></trkpt><trkpt lat="51.7436211370" lon="-1.8175286148"><ele>136.16</ele><time>2015-11-11T11:14:13Z</time></trkpt><trkpt lat="51.7435942311" lon="-1.8175188079"><ele>127.99</ele><time>2015-11-11T11:14:17Z</time></trkpt><trkpt lat="51.7435816582" lon="-1.8175137788"><ele>136.16</ele><time>2015-11-11T11:14:18Z</time></trkpt><trkpt lat="51.7434250005" lon="-1.8174879625"><ele>138.09</ele><time>2015-11-11T11:14:36Z</time></trkpt><trkpt lat="51.7434182949" lon="-1.8174843583"><ele>136.64</ele><time>2015-11-11T11:14:37Z</time></trkpt><trkpt lat="51.7434057221" lon="-1.8174848612"><ele>135.68</ele><time>2015-11-11T11:14:39Z</time></trkpt><trkpt lat="51.7433981784" lon="-1.8174825143"><ele>139.05</ele><time>2015-11-11T11:14:40Z</time></trkpt><trkpt lat="51.7433917243" lon="-1.8174788263"><ele>133.76</ele><time>2015-11-11T11:14:41Z</time></trkpt><trkpt lat="51.7433746252" lon="-1.8174619786"><ele>137.13</ele><time>2015-11-11T11:14:44Z</time></trkpt><trkpt lat="51.7433689255" lon="-1.8174538482"><ele>133.76</ele><time>2015-11-11T11:14:45Z</time></trkpt><trkpt lat="51.7433638964" lon="-1.8174481485"><ele>134.24</ele><time>2015-11-11T11:14:46Z</time></trkpt><trkpt lat="51.7433224060" lon="-1.8174526747"><ele>138.09</ele><time>2015-11-11T11:14:52Z</time></trkpt><trkpt lat="51.7433119286" lon="-1.8174478132"><ele>135.20</ele><time>2015-11-11T11:14:54Z</time></trkpt><trkpt lat="51.7433018703" lon="-1.8174406886"><ele>135.68</ele><time>2015-11-11T11:14:55Z</time></trkpt><trkpt lat="51.7432775628" lon="-1.8174372520"><ele>136.64</ele><time>2015-11-11T11:14:57Z</time></trkpt><trkpt lat="51.7431546003" lon="-1.8174362462"><ele>137.13</ele><time>2015-11-11T11:15:11Z</time></trkpt><trkpt lat="51.7431100085" lon="-1.8174592126"><ele>136.16</ele><time>2015-11-11T11:15:16Z</time></trkpt><trkpt lat="51.7431075778" lon="-1.8174593803"><ele>135.20</ele><time>2015-11-11T11:15:18Z</time></trkpt><trkpt lat="51.7429826874" lon="-1.8174044788"><ele>133.76</ele><time>2015-11-11T11:15:35Z</time></trkpt><trkpt lat="51.7429560330" lon="-1.8174075801"><ele>137.61</ele><time>2015-11-11T11:15:37Z</time></trkpt><trkpt lat="51.7429381795" lon="-1.8174023833"><ele>133.76</ele><time>2015-11-11T11:15:38Z</time></trkpt><trkpt lat="51.7428982817" lon="-1.8173894752"><ele>137.13</ele><time>2015-11-11T11:15:41Z</time></trkpt><trkpt lat="51.7428905703" lon="-1.8173828535"><ele>133.76</ele><time>2015-11-11T11:15:42Z</time></trkpt><trkpt lat="51.7428693641" lon="-1.8173825182"><ele>137.13</ele><time>2015-11-11T11:15:45Z</time></trkpt><trkpt lat="51.7428632453" lon="-1.8173834402"><ele>131.84</ele><time>2015-11-11T11:15:46Z</time></trkpt><trkpt lat="51.7428375967" lon="-1.8173914868"><ele>135.20</ele><time>2015-11-11T11:15:49Z</time></trkpt><trkpt lat="51.7426893208" lon="-1.8173903134"><ele>132.80</ele><time>2015-11-11T11:16:08Z</time></trkpt><trkpt lat="51.7426659353" lon="-1.8173813447"><ele>136.16</ele><time>2015-11-11T11:16:10Z</time></trkpt><trkpt lat="51.7424913403" lon="-1.8174121063"><ele>137.13</ele><time>2015-11-11T11:16:26Z</time></trkpt><trkpt lat="51.7424845509" lon="-1.8174105138"><ele>132.80</ele><time>2015-11-11T11:16:27Z</time></trkpt><trkpt lat="51.7424649373" lon="-1.8174075801"><ele>136.16</ele><time>2015-11-11T11:16:29Z</time></trkpt><trkpt lat="51.7424572259" lon="-1.8174009584"><ele>135.68</ele><time>2015-11-11T11:16:30Z</time></trkpt><trkpt lat="51.7423220258" lon="-1.8173629884"><ele>136.16</ele><time>2015-11-11T11:16:46Z</time></trkpt><trkpt lat="51.7421833891" lon="-1.8173336517"><ele>135.68</ele><time>2015-11-11T11:17:02Z</time></trkpt><trkpt lat="51.7421182618" lon="-1.8173165526"><ele>136.16</ele><time>2015-11-11T11:17:09Z</time></trkpt><trkpt lat="51.7420373764" lon="-1.8173184805"><ele>136.16</ele><time>2015-11-11T11:17:18Z</time></trkpt><trkpt lat="51.7420235462" lon="-1.8173292093"><ele>135.20</ele><time>2015-11-11T11:17:20Z</time></trkpt><trkpt lat="51.7419728357" lon="-1.8174361624"><ele>137.13</ele><time>2015-11-11T11:17:35Z</time></trkpt><trkpt lat="51.7419802118" lon="-1.8174748868"><ele>136.64</ele><time>2015-11-11T11:17:46Z</time></trkpt><trkpt lat="51.7419732548" lon="-1.8175271060"><ele>133.76</ele><time>2015-11-11T11:17:50Z</time></trkpt><trkpt lat="51.7419836484" lon="-1.8176072370"><ele>137.13</ele><time>2015-11-11T11:17:55Z</time></trkpt><trkpt lat="51.7419859953" lon="-1.8176226597"><ele>131.84</ele><time>2015-11-11T11:17:56Z</time></trkpt><trkpt lat="51.7419870012" lon="-1.8176364060"><ele>136.16</ele><time>2015-11-11T11:17:57Z</time></trkpt><trkpt lat="51.7419726681" lon="-1.8177085742"><ele>134.24</ele><time>2015-11-11T11:18:01Z</time></trkpt><trkpt lat="51.7419675551" lon="-1.8177726120"><ele>138.09</ele><time>2015-11-11T11:18:04Z</time></trkpt><trkpt lat="51.7419625260" lon="-1.8178053852"><ele>132.80</ele><time>2015-11-11T11:18:06Z</time></trkpt><trkpt lat="51.7419637833" lon="-1.8178161979"><ele>135.20</ele><time>2015-11-11T11:18:07Z</time></trkpt><trkpt lat="51.7419652082" lon="-1.8178777210"><ele>135.20</ele><time>2015-11-11T11:18:12Z</time></trkpt><trkpt lat="51.7419637833" lon="-1.8179929722"><ele>139.53</ele><time>2015-11-11T11:18:20Z</time></trkpt><trkpt lat="51.7419675551" lon="-1.8180026952"><ele>136.16</ele><time>2015-11-11T11:18:21Z</time></trkpt><trkpt lat="51.7419764400" lon="-1.8180184532"><ele>135.20</ele><time>2015-11-11T11:18:23Z</time></trkpt><trkpt lat="51.7419785354" lon="-1.8180364743"><ele>139.05</ele><time>2015-11-11T11:18:25Z</time></trkpt><trkpt lat="51.7419786192" lon="-1.8180429284"><ele>133.76</ele><time>2015-11-11T11:18:26Z</time></trkpt><trkpt lat="51.7419769429" lon="-1.8180555850"><ele>134.72</ele><time>2015-11-11T11:18:27Z</time></trkpt><trkpt lat="51.7419734225" lon="-1.8181811459"><ele>135.20</ele><time>2015-11-11T11:18:34Z</time></trkpt><trkpt lat="51.7419641186" lon="-1.8182174396"><ele>138.57</ele><time>2015-11-11T11:18:36Z</time></trkpt><trkpt lat="51.7419600952" lon="-1.8182324432"><ele>135.68</ele><time>2015-11-11T11:18:37Z</time></trkpt><trkpt lat="51.7419531383" lon="-1.8183529750"><ele>134.24</ele><time>2015-11-11T11:18:45Z</time></trkpt><trkpt lat="51.7419497855" lon="-1.8184076250"><ele>136.64</ele><time>2015-11-11T11:18:48Z</time></trkpt><trkpt lat="51.7419492826" lon="-1.8184203655"><ele>133.28</ele><time>2015-11-11T11:18:49Z</time></trkpt><trkpt lat="51.7419490311" lon="-1.8184344471"><ele>133.76</ele><time>2015-11-11T11:18:50Z</time></trkpt><trkpt lat="51.7419564072" lon="-1.8184633646"><ele>137.13</ele><time>2015-11-11T11:18:52Z</time></trkpt><trkpt lat="51.7419580836" lon="-1.8185912725"><ele>134.24</ele><time>2015-11-11T11:19:03Z</time></trkpt><trkpt lat="51.7419564072" lon="-1.8187214434"><ele>137.13</ele><time>2015-11-11T11:19:12Z</time></trkpt><trkpt lat="51.7419476900" lon="-1.8187532946"><ele>131.36</ele><time>2015-11-11T11:19:14Z</time></trkpt><trkpt lat="51.7419445887" lon="-1.8187695555"><ele>135.20</ele><time>2015-11-11T11:19:15Z</time></trkpt><trkpt lat="51.7419367097" lon="-1.8188284803"><ele>131.84</ele><time>2015-11-11T11:19:21Z</time></trkpt><trkpt lat="51.7419396434" lon="-1.8189095333"><ele>139.53</ele><time>2015-11-11T11:19:24Z</time></trkpt><trkpt lat="51.7419400625" lon="-1.8189287279"><ele>134.24</ele><time>2015-11-11T11:19:25Z</time></trkpt><trkpt lat="51.7419400625" lon="-1.8189489283"><ele>130.88</ele><time>2015-11-11T11:19:26Z</time></trkpt><trkpt lat="51.7419375479" lon="-1.8189697154"><ele>135.20</ele><time>2015-11-11T11:19:27Z</time></trkpt><trkpt lat="51.7419345304" lon="-1.8190086912"><ele>138.09</ele><time>2015-11-11T11:19:29Z</time></trkpt><trkpt lat="51.7419351172" lon="-1.8190594856"><ele>133.28</ele><time>2015-11-11T11:19:33Z</time></trkpt><trkpt lat="51.7419403978" lon="-1.8190699629"><ele>134.72</ele><time>2015-11-11T11:19:34Z</time></trkpt><trkpt lat="51.7419367097" lon="-1.8192356732"><ele>136.64</ele><time>2015-11-11T11:19:44Z</time></trkpt><trkpt lat="51.7419387214" lon="-1.8192617409"><ele>134.72</ele><time>2015-11-11T11:19:46Z</time></trkpt><trkpt lat="51.7419359554" lon="-1.8195130304"><ele>134.72</ele><time>2015-11-11T11:19:59Z</time></trkpt><trkpt lat="51.7419383023" lon="-1.8195473962"><ele>139.05</ele><time>2015-11-11T11:20:01Z</time></trkpt><trkpt lat="51.7419386376" lon="-1.8195649981"><ele>135.20</ele><time>2015-11-11T11:20:02Z</time></trkpt><trkpt lat="51.7419504561" lon="-1.8196139485"><ele>133.76</ele><time>2015-11-11T11:20:05Z</time></trkpt><trkpt lat="51.7420812976" lon="-1.8197079096"><ele>134.24</ele><time>2015-11-11T11:20:21Z</time></trkpt><trkpt lat="51.7421725765" lon="-1.8198213167"><ele>135.20</ele><time>2015-11-11T11:20:33Z</time></trkpt><trkpt lat="51.7422972992" lon="-1.8199348077"><ele>132.80</ele><time>2015-11-11T11:20:52Z</time></trkpt><trkpt lat="51.7423328385" lon="-1.8199786451"><ele>134.72</ele><time>2015-11-11T11:20:55Z</time></trkpt><trkpt lat="51.7423529550" lon="-1.8200052157"><ele>133.28</ele><time>2015-11-11T11:20:57Z</time></trkpt><trkpt lat="51.7424049228" lon="-1.8200525735"><ele>133.28</ele><time>2015-11-11T11:21:04Z</time></trkpt><trkpt lat="51.7424647696" lon="-1.8201518990"><ele>127.51</ele><time>2015-11-11T11:21:22Z</time></trkpt><trkpt lat="51.7424648535" lon="-1.8201518990"><ele>132.32</ele><time>2015-11-11T11:21:23Z</time></trkpt><trkpt lat="51.7424659431" lon="-1.8201513123"><ele>133.28</ele><time>2015-11-11T11:21:25Z</time></trkpt><trkpt lat="51.7424754146" lon="-1.8201716803"><ele>135.20</ele><time>2015-11-11T11:21:47Z</time></trkpt><trkpt lat="51.7425935157" lon="-1.8202308565"><ele>131.84</ele><time>2015-11-11T11:22:03Z</time></trkpt><trkpt lat="51.7426292226" lon="-1.8202589359"><ele>132.80</ele><time>2015-11-11T11:22:06Z</time></trkpt><trkpt lat="51.7427666020" lon="-1.8204041105"><ele>130.88</ele><time>2015-11-11T11:22:20Z</time></trkpt><trkpt lat="51.7428008839" lon="-1.8204378895"><ele>134.24</ele><time>2015-11-11T11:22:24Z</time></trkpt><trkpt lat="51.7428090982" lon="-1.8204487022"><ele>134.24</ele><time>2015-11-11T11:22:25Z</time></trkpt><trkpt lat="51.7428177316" lon="-1.8204627838"><ele>130.88</ele><time>2015-11-11T11:22:26Z</time></trkpt><trkpt lat="51.7428608146" lon="-1.8205435853"><ele>135.20</ele><time>2015-11-11T11:22:32Z</time></trkpt><trkpt lat="51.7428667657" lon="-1.8205520511"><ele>133.28</ele><time>2015-11-11T11:22:33Z</time></trkpt><trkpt lat="51.7428733036" lon="-1.8205604330"><ele>129.92</ele><time>2015-11-11T11:22:34Z</time></trkpt><trkpt lat="51.7428827751" lon="-1.8205694016"><ele>130.88</ele><time>2015-11-11T11:22:35Z</time></trkpt><trkpt lat="51.7429347429" lon="-1.8205927871"><ele>132.80</ele><time>2015-11-11T11:22:39Z</time></trkpt><trkpt lat="51.7429806758" lon="-1.8206231296"><ele>128.95</ele><time>2015-11-11T11:22:43Z</time></trkpt><trkpt lat="51.7429951765" lon="-1.8206274044"><ele>130.88</ele><time>2015-11-11T11:22:44Z</time></trkpt><trkpt lat="51.7430081684" lon="-1.8206299189"><ele>130.40</ele><time>2015-11-11T11:22:45Z</time></trkpt><trkpt lat="51.7430371698" lon="-1.8206370436"><ele>133.76</ele><time>2015-11-11T11:22:47Z</time></trkpt><trkpt lat="51.7430521734" lon="-1.8206424080"><ele>131.84</ele><time>2015-11-11T11:22:48Z</time></trkpt><trkpt lat="51.7431849428" lon="-1.8207947910"><ele>131.36</ele><time>2015-11-11T11:23:03Z</time></trkpt><trkpt lat="51.7432125192" lon="-1.8208311684"><ele>127.99</ele><time>2015-11-11T11:23:07Z</time></trkpt><trkpt lat="51.7432198953" lon="-1.8208440766"><ele>128.47</ele><time>2015-11-11T11:23:08Z</time></trkpt><trkpt lat="51.7432700191" lon="-1.8209033366"><ele>127.99</ele><time>2015-11-11T11:23:14Z</time></trkpt><trkpt lat="51.7434331309" lon="-1.8210967910"><ele>124.63</ele><time>2015-11-11T11:23:33Z</time></trkpt><trkpt lat="51.7434344720" lon="-1.8211102020"><ele>127.51</ele><time>2015-11-11T11:23:35Z</time></trkpt><trkpt lat="51.7434350587" lon="-1.8211134709"><ele>124.63</ele><time>2015-11-11T11:23:36Z</time></trkpt><trkpt lat="51.7434644792" lon="-1.8211835437"><ele>128.95</ele><time>2015-11-11T11:23:52Z</time></trkpt><trkpt lat="51.7434731126" lon="-1.8211923447"><ele>125.59</ele><time>2015-11-11T11:23:53Z</time></trkpt><trkpt lat="51.7434876133" lon="-1.8212013133"><ele>122.22</ele><time>2015-11-11T11:23:55Z</time></trkpt><trkpt lat="51.7434944026" lon="-1.8212034088"><ele>125.59</ele><time>2015-11-11T11:23:56Z</time></trkpt><trkpt lat="51.7435037903" lon="-1.8212034926"><ele>122.22</ele><time>2015-11-11T11:23:58Z</time></trkpt><trkpt lat="51.7435123399" lon="-1.8212138861"><ele>126.07</ele><time>2015-11-11T11:24:00Z</time></trkpt><trkpt lat="51.7435174529" lon="-1.8212201726"><ele>126.07</ele><time>2015-11-11T11:24:01Z</time></trkpt><trkpt lat="51.7435292713" lon="-1.8212352600"><ele>124.15</ele><time>2015-11-11T11:24:03Z</time></trkpt><trkpt lat="51.7435358092" lon="-1.8212532811"><ele>126.07</ele><time>2015-11-11T11:24:05Z</time></trkpt><trkpt lat="51.7435373180" lon="-1.8212684523"><ele>122.71</ele><time>2015-11-11T11:24:07Z</time></trkpt><trkpt lat="51.7435425147" lon="-1.8212755769"><ele>124.15</ele><time>2015-11-11T11:24:08Z</time></trkpt><trkpt lat="51.7435628828" lon="-1.8213391118"><ele>124.15</ele><time>2015-11-11T11:24:13Z</time></trkpt><trkpt lat="51.7435692530" lon="-1.8213819433"><ele>125.11</ele><time>2015-11-11T11:24:15Z</time></trkpt><trkpt lat="51.7435755394" lon="-1.8213965278"><ele>121.74</ele><time>2015-11-11T11:24:16Z</time></trkpt><trkpt lat="51.7436385714" lon="-1.8216559477"><ele>123.19</ele><time>2015-11-11T11:24:33Z</time></trkpt><trkpt lat="51.7436653096" lon="-1.8217070773"><ele>122.22</ele><time>2015-11-11T11:24:38Z</time></trkpt><trkpt lat="51.7436766252" lon="-1.8217414431"><ele>120.30</ele><time>2015-11-11T11:24:41Z</time></trkpt><trkpt lat="51.7436789721" lon="-1.8217515014"><ele>122.22</ele><time>2015-11-11T11:24:42Z</time></trkpt><trkpt lat="51.7436932214" lon="-1.8218084145"><ele>119.34</ele><time>2015-11-11T11:24:46Z</time></trkpt><trkpt lat="51.7437023576" lon="-1.8218479771"><ele>122.71</ele><time>2015-11-11T11:24:49Z</time></trkpt><trkpt lat="51.7437274195" lon="-1.8218641542"><ele>119.34</ele><time>2015-11-11T11:24:56Z</time></trkpt><trkpt lat="51.7437222227" lon="-1.8218966760"><ele>122.71</ele><time>2015-11-11T11:25:00Z</time></trkpt><trkpt lat="51.7437254079" lon="-1.8219693471"><ele>122.71</ele><time>2015-11-11T11:25:07Z</time></trkpt><trkpt lat="51.7437344603" lon="-1.8219868653"><ele>121.74</ele><time>2015-11-11T11:25:28Z</time></trkpt><trkpt lat="51.7437244020" lon="-1.8219679222"><ele>125.11</ele><time>2015-11-11T11:25:48Z</time></trkpt><trkpt lat="51.7437246535" lon="-1.8219674192"><ele>121.74</ele><time>2015-11-11T11:25:49Z</time></trkpt><trkpt lat="51.7437250726" lon="-1.8219642341"><ele>121.74</ele><time>2015-11-11T11:26:13Z</time></trkpt><trkpt lat="51.7437139247" lon="-1.8219895475"><ele>120.78</ele><time>2015-11-11T11:26:34Z</time></trkpt><trkpt lat="51.7437408306" lon="-1.8220240809"><ele>121.74</ele><time>2015-11-11T11:26:55Z</time></trkpt><trkpt lat="51.7437632103" lon="-1.8220462091"><ele>118.86</ele><time>2015-11-11T11:27:01Z</time></trkpt><trkpt lat="51.7437687423" lon="-1.8220916390"><ele>121.74</ele><time>2015-11-11T11:27:05Z</time></trkpt><trkpt lat="51.7437876854" lon="-1.8221607059"><ele>121.74</ele><time>2015-11-11T11:27:11Z</time></trkpt><trkpt lat="51.7437929660" lon="-1.8221883662"><ele>120.30</ele><time>2015-11-11T11:27:13Z</time></trkpt><trkpt lat="51.7438168544" lon="-1.8222972471"><ele>119.82</ele><time>2015-11-11T11:27:22Z</time></trkpt><trkpt lat="51.7438323610" lon="-1.8223254941"><ele>119.82</ele><time>2015-11-11T11:27:25Z</time></trkpt><trkpt lat="51.7438510526" lon="-1.8224844988"><ele>121.26</ele><time>2015-11-11T11:27:36Z</time></trkpt><trkpt lat="51.7438647151" lon="-1.8225411605"><ele>120.78</ele><time>2015-11-11T11:27:40Z</time></trkpt><trkpt lat="51.7438681517" lon="-1.8225502130"><ele>118.86</ele><time>2015-11-11T11:27:41Z</time></trkpt><trkpt lat="51.7439029366" lon="-1.8226753548"><ele>119.82</ele><time>2015-11-11T11:27:50Z</time></trkpt><trkpt lat="51.7439352907" lon="-1.8227909412"><ele>116.94</ele><time>2015-11-11T11:28:00Z</time></trkpt><trkpt lat="51.7439596821" lon="-1.8228777777"><ele>115.98</ele><time>2015-11-11T11:28:06Z</time></trkpt><trkpt lat="51.7439669743" lon="-1.8229777738"><ele>115.01</ele><time>2015-11-11T11:28:12Z</time></trkpt><trkpt lat="51.7440138292" lon="-1.8231128063"><ele>114.53</ele><time>2015-11-11T11:28:23Z</time></trkpt><trkpt lat="51.7440567445" lon="-1.8232226092"><ele>114.05</ele><time>2015-11-11T11:28:33Z</time></trkpt><trkpt lat="51.7440799624" lon="-1.8233070150"><ele>113.09</ele><time>2015-11-11T11:28:39Z</time></trkpt><trkpt lat="51.7440820578" lon="-1.8233840447"><ele>112.13</ele><time>2015-11-11T11:28:43Z</time></trkpt><trkpt lat="51.7440896854" lon="-1.8234285526"><ele>113.09</ele><time>2015-11-11T11:28:46Z</time></trkpt><trkpt lat="51.7441078741" lon="-1.8234764971"><ele>112.61</ele><time>2015-11-11T11:28:50Z</time></trkpt><trkpt lat="51.7441362049" lon="-1.8235531915"><ele>112.13</ele><time>2015-11-11T11:28:55Z</time></trkpt><trkpt lat="51.7441598419" lon="-1.8236558698"><ele>111.17</ele><time>2015-11-11T11:29:02Z</time></trkpt><trkpt lat="51.7441781983" lon="-1.8237260263"><ele>111.17</ele><time>2015-11-11T11:29:07Z</time></trkpt><trkpt lat="51.7441972252" lon="-1.8238410261"><ele>110.69</ele><time>2015-11-11T11:29:14Z</time></trkpt><trkpt lat="51.7442241311" lon="-1.8239055667"><ele>110.21</ele><time>2015-11-11T11:29:19Z</time></trkpt><trkpt lat="51.7442284059" lon="-1.8239203189"><ele>110.21</ele><time>2015-11-11T11:29:20Z</time></trkpt><trkpt lat="51.7442521267" lon="-1.8239799980"><ele>108.77</ele><time>2015-11-11T11:29:25Z</time></trkpt><trkpt lat="51.7442576587" lon="-1.8239918165"><ele>109.73</ele><time>2015-11-11T11:29:26Z</time></trkpt><trkpt lat="51.7442779429" lon="-1.8240168784"><ele>111.17</ele><time>2015-11-11T11:29:29Z</time></trkpt><trkpt lat="51.7442917731" lon="-1.8240292836"><ele>108.77</ele><time>2015-11-11T11:29:31Z</time></trkpt><trkpt lat="51.7443078663" lon="-1.8240525853"><ele>109.73</ele><time>2015-11-11T11:29:33Z</time></trkpt><trkpt lat="51.7443756759" lon="-1.8241825048"><ele>108.77</ele><time>2015-11-11T11:29:44Z</time></trkpt><trkpt lat="51.7444203515" lon="-1.8242659885"><ele>108.77</ele><time>2015-11-11T11:29:51Z</time></trkpt><trkpt lat="51.7444391269" lon="-1.8243283499"><ele>108.29</ele><time>2015-11-11T11:29:55Z</time></trkpt><trkpt lat="51.7445549648" lon="-1.8245013524"><ele>107.81</ele><time>2015-11-11T11:30:11Z</time></trkpt><trkpt lat="51.7446188349" lon="-1.8245647196"><ele>107.81</ele><time>2015-11-11T11:30:20Z</time></trkpt><trkpt lat="51.7446718924" lon="-1.8246810604"><ele>106.84</ele><time>2015-11-11T11:30:28Z</time></trkpt><trkpt lat="51.7447180767" lon="-1.8247228023"><ele>106.36</ele><time>2015-11-11T11:30:33Z</time></trkpt><trkpt lat="51.7447945196" lon="-1.8248681445"><ele>107.32</ele><time>2015-11-11T11:30:47Z</time></trkpt><trkpt lat="51.7448038235" lon="-1.8249078747"><ele>104.44</ele><time>2015-11-11T11:30:49Z</time></trkpt><trkpt lat="51.7448518518" lon="-1.8249997403"><ele>104.92</ele><time>2015-11-11T11:30:57Z</time></trkpt><trkpt lat="51.7448842060" lon="-1.8250895943"><ele>104.44</ele><time>2015-11-11T11:31:04Z</time></trkpt><trkpt lat="51.7449126206" lon="-1.8251819629"><ele>104.92</ele><time>2015-11-11T11:31:12Z</time></trkpt><trkpt lat="51.7449275404" lon="-1.8251831364"><ele>102.04</ele><time>2015-11-11T11:31:17Z</time></trkpt><trkpt lat="51.7449284624" lon="-1.8251812086"><ele>105.88</ele><time>2015-11-11T11:31:18Z</time></trkpt><trkpt lat="51.7449506745" lon="-1.8251191825"><ele>99.63</ele><time>2015-11-11T11:31:30Z</time></trkpt><trkpt lat="51.7449538596" lon="-1.8251154106"><ele>105.40</ele><time>2015-11-11T11:31:31Z</time></trkpt><trkpt lat="51.7449526023" lon="-1.8251114711"><ele>105.40</ele><time>2015-11-11T11:31:58Z</time></trkpt><trkpt lat="51.7449597269" lon="-1.8251643609"><ele>104.92</ele><time>2015-11-11T11:32:13Z</time></trkpt><trkpt lat="51.7449757364" lon="-1.8251735810"><ele>101.08</ele><time>2015-11-11T11:32:20Z</time></trkpt><trkpt lat="51.7449857946" lon="-1.8251844775"><ele>105.88</ele><time>2015-11-11T11:32:21Z</time></trkpt><trkpt lat="51.7449951824" lon="-1.8251939490"><ele>105.88</ele><time>2015-11-11T11:32:22Z</time></trkpt><trkpt lat="51.7450392712" lon="-1.8252441566"><ele>100.60</ele><time>2015-11-11T11:32:28Z</time></trkpt><trkpt lat="51.7450458091" lon="-1.8252546340"><ele>104.92</ele><time>2015-11-11T11:32:29Z</time></trkpt><trkpt lat="51.7451104335" lon="-1.8253614195"><ele>103.96</ele><time>2015-11-11T11:32:38Z</time></trkpt><trkpt lat="51.7451515887" lon="-1.8254490104"><ele>104.44</ele><time>2015-11-11T11:32:44Z</time></trkpt><trkpt lat="51.7451641615" lon="-1.8254707195"><ele>105.40</ele><time>2015-11-11T11:32:46Z</time></trkpt><trkpt lat="51.7451860383" lon="-1.8255011458"><ele>102.52</ele><time>2015-11-11T11:32:50Z</time></trkpt><trkpt lat="51.7451900616" lon="-1.8255127966"><ele>105.88</ele><time>2015-11-11T11:32:51Z</time></trkpt><trkpt lat="51.7452242598" lon="-1.8256071769"><ele>106.84</ele><time>2015-11-11T11:32:57Z</time></trkpt><trkpt lat="51.7452549376" lon="-1.8256718852"><ele>109.73</ele><time>2015-11-11T11:33:03Z</time></trkpt><trkpt lat="51.7452572845" lon="-1.8256834522"><ele>104.92</ele><time>2015-11-11T11:33:04Z</time></trkpt><trkpt lat="51.7452764791" lon="-1.8257388566"><ele>108.29</ele><time>2015-11-11T11:33:09Z</time></trkpt><trkpt lat="51.7452926561" lon="-1.8257681932"><ele>111.17</ele><time>2015-11-11T11:33:13Z</time></trkpt><trkpt lat="51.7452979367" lon="-1.8257773295"><ele>103.48</ele><time>2015-11-11T11:33:14Z</time></trkpt><trkpt lat="51.7453040555" lon="-1.8257855438"><ele>107.81</ele><time>2015-11-11T11:33:15Z</time></trkpt><trkpt lat="51.7453662492" lon="-1.8259670958"><ele>110.21</ele><time>2015-11-11T11:33:33Z</time></trkpt><trkpt lat="51.7453655787" lon="-1.8260182254"><ele>110.21</ele><time>2015-11-11T11:33:37Z</time></trkpt><trkpt lat="51.7453784030" lon="-1.8260516692"><ele>108.29</ele><time>2015-11-11T11:33:40Z</time></trkpt><trkpt lat="51.7454715259" lon="-1.8262178823"><ele>111.17</ele><time>2015-11-11T11:34:00Z</time></trkpt><trkpt lat="51.7455032934" lon="-1.8262587022"><ele>107.81</ele><time>2015-11-11T11:34:07Z</time></trkpt><trkpt lat="51.7455058917" lon="-1.8262654077"><ele>112.61</ele><time>2015-11-11T11:34:08Z</time></trkpt><trkpt lat="51.7455213983" lon="-1.8262986839"><ele>116.46</ele><time>2015-11-11T11:34:12Z</time></trkpt><trkpt lat="51.7455370724" lon="-1.8263247516"><ele>111.65</ele><time>2015-11-11T11:34:15Z</time></trkpt><trkpt lat="51.7455433588" lon="-1.8263373245"><ele>114.53</ele><time>2015-11-11T11:34:16Z</time></trkpt><trkpt lat="51.7455535848" lon="-1.8263694271"><ele>118.38</ele><time>2015-11-11T11:34:18Z</time></trkpt><trkpt lat="51.7455588654" lon="-1.8263819162"><ele>114.05</ele><time>2015-11-11T11:34:19Z</time></trkpt><trkpt lat="51.7455799878" lon="-1.8264421821"><ele>115.50</ele><time>2015-11-11T11:34:22Z</time></trkpt><trkpt lat="51.7456083186" lon="-1.8265203014"><ele>112.13</ele><time>2015-11-11T11:34:27Z</time></trkpt><trkpt lat="51.7456127610" lon="-1.8265322875"><ele>116.94</ele><time>2015-11-11T11:34:28Z</time></trkpt><trkpt lat="51.7456423491" lon="-1.8266158551"><ele>113.57</ele><time>2015-11-11T11:34:34Z</time></trkpt><trkpt lat="51.7456503958" lon="-1.8266343791"><ele>119.82</ele><time>2015-11-11T11:34:35Z</time></trkpt><trkpt lat="51.7456573527" lon="-1.8266539089"><ele>116.46</ele><time>2015-11-11T11:34:36Z</time></trkpt><trkpt lat="51.7456628010" lon="-1.8266689125"><ele>121.26</ele><time>2015-11-11T11:34:37Z</time></trkpt><trkpt lat="51.7456712667" lon="-1.8266837485"><ele>116.94</ele><time>2015-11-11T11:34:38Z</time></trkpt><trkpt lat="51.7456798162" lon="-1.8266995065"><ele>113.09</ele><time>2015-11-11T11:34:39Z</time></trkpt><trkpt lat="51.7456873599" lon="-1.8267155159"><ele>118.86</ele><time>2015-11-11T11:34:40Z</time></trkpt><trkpt lat="51.7457727715" lon="-1.8268464413"><ele>118.86</ele><time>2015-11-11T11:34:50Z</time></trkpt><trkpt lat="51.7458202969" lon="-1.8269233033"><ele>120.30</ele><time>2015-11-11T11:34:57Z</time></trkpt><trkpt lat="51.7458723485" lon="-1.8270575814"><ele>119.82</ele><time>2015-11-11T11:35:05Z</time></trkpt><trkpt lat="51.7458896991" lon="-1.8270960543"><ele>121.26</ele><time>2015-11-11T11:35:07Z</time></trkpt><trkpt lat="51.7459164374" lon="-1.8271658756"><ele>124.63</ele><time>2015-11-11T11:35:11Z</time></trkpt><trkpt lat="51.7459306866" lon="-1.8271921109"><ele>119.34</ele><time>2015-11-11T11:35:13Z</time></trkpt><trkpt lat="51.7459399905" lon="-1.8272053543"><ele>121.26</ele><time>2015-11-11T11:35:14Z</time></trkpt><trkpt lat="51.7459589336" lon="-1.8272309192"><ele>122.22</ele><time>2015-11-11T11:35:16Z</time></trkpt><trkpt lat="51.7460422497" lon="-1.8273377884"><ele>126.07</ele><time>2015-11-11T11:35:27Z</time></trkpt><trkpt lat="51.7460496258" lon="-1.8273454998"><ele>122.22</ele><time>2015-11-11T11:35:28Z</time></trkpt><trkpt lat="51.7460637912" lon="-1.8273558095"><ele>126.07</ele><time>2015-11-11T11:35:30Z</time></trkpt><trkpt lat="51.7460714187" lon="-1.8273574859"><ele>122.71</ele><time>2015-11-11T11:35:31Z</time></trkpt><trkpt lat="51.7460928764" lon="-1.8273890018"><ele>126.55</ele><time>2015-11-11T11:35:35Z</time></trkpt><trkpt lat="51.7461190280" lon="-1.8273841403"><ele>124.63</ele><time>2015-11-11T11:35:54Z</time></trkpt><trkpt lat="51.7461165134" lon="-1.8273944501"><ele>129.92</ele><time>2015-11-11T11:36:16Z</time></trkpt><trkpt lat="51.7461164296" lon="-1.8273945339"><ele>125.11</ele><time>2015-11-11T11:36:17Z</time></trkpt><trkpt lat="51.7461083829" lon="-1.8273843918"><ele>124.63</ele><time>2015-11-11T11:36:38Z</time></trkpt><trkpt lat="51.7461170163" lon="-1.8274005689"><ele>125.59</ele><time>2015-11-11T11:37:03Z</time></trkpt><trkpt lat="51.7461114004" lon="-1.8274092861"><ele>125.59</ele><time>2015-11-11T11:37:25Z</time></trkpt><trkpt lat="51.7461113166" lon="-1.8274094537"><ele>122.22</ele><time>2015-11-11T11:37:27Z</time></trkpt><trkpt lat="51.7461111490" lon="-1.8274100404"><ele>126.55</ele><time>2015-11-11T11:37:28Z</time></trkpt><trkpt lat="51.7461104784" lon="-1.8274113815"><ele>122.71</ele><time>2015-11-11T11:37:31Z</time></trkpt><trkpt lat="51.7461103946" lon="-1.8274115492"><ele>125.59</ele><time>2015-11-11T11:37:32Z</time></trkpt><trkpt lat="51.7461096402" lon="-1.8274164107"><ele>125.11</ele><time>2015-11-11T11:37:44Z</time></trkpt><trkpt lat="51.7461104784" lon="-1.8274263851"><ele>125.11</ele><time>2015-11-11T11:38:11Z</time></trkpt><trkpt lat="51.7461129092" lon="-1.8274274748"><ele>126.07</ele><time>2015-11-11T11:38:42Z</time></trkpt><trkpt lat="51.7461125739" lon="-1.8274279777"><ele>126.07</ele><time>2015-11-11T11:39:08Z</time></trkpt><trkpt lat="51.7461130768" lon="-1.8274272233"><ele>122.22</ele><time>2015-11-11T11:39:13Z</time></trkpt><trkpt lat="51.7461130768" lon="-1.8274272233"><ele>125.59</ele><time>2015-11-11T11:39:14Z</time></trkpt><trkpt lat="51.7461120710" lon="-1.8274268042"><ele>127.03</ele><time>2015-11-11T11:39:40Z</time></trkpt><trkpt lat="51.7461098917" lon="-1.8274244573"><ele>123.67</ele><time>2015-11-11T11:40:11Z</time></trkpt><trkpt lat="51.7461098079" lon="-1.8274243735"><ele>127.51</ele><time>2015-11-11T11:40:13Z</time></trkpt><trkpt lat="51.7461098079" lon="-1.8274243735"><ele>125.59</ele><time>2015-11-11T11:40:14Z</time></trkpt><trkpt lat="51.7461103108" lon="-1.8274246249"><ele>125.11</ele><time>2015-11-11T11:40:43Z</time></trkpt><trkpt lat="51.7461098079" lon="-1.8274248764"><ele>121.26</ele><time>2015-11-11T11:40:51Z</time></trkpt><trkpt lat="51.7461097240" lon="-1.8274247926"><ele>126.07</ele><time>2015-11-11T11:40:52Z</time></trkpt><trkpt lat="51.7461111490" lon="-1.8274249602"><ele>116.94</ele><time>2015-11-11T11:41:10Z</time></trkpt><trkpt lat="51.7461104784" lon="-1.8274251278"><ele>135.20</ele><time>2015-11-11T11:41:11Z</time></trkpt><trkpt lat="51.7461098079" lon="-1.8274254631"><ele>126.07</ele><time>2015-11-11T11:41:12Z</time></trkpt><trkpt lat="51.7461076286" lon="-1.8274240382"><ele>125.59</ele><time>2015-11-11T11:41:38Z</time></trkpt><trkpt lat="51.7461124063" lon="-1.8274244573"><ele>125.11</ele><time>2015-11-11T11:42:05Z</time></trkpt><trkpt lat="51.7461231351" lon="-1.8274232838"><ele>129.43</ele><time>2015-11-11T11:42:14Z</time></trkpt><trkpt lat="51.7461304273" lon="-1.8274235353"><ele>125.59</ele><time>2015-11-11T11:42:15Z</time></trkpt><trkpt lat="51.7461373843" lon="-1.8274255469"><ele>119.82</ele><time>2015-11-11T11:42:16Z</time></trkpt><trkpt lat="51.7461437546" lon="-1.8274314143"><ele>122.71</ele><time>2015-11-11T11:42:17Z</time></trkpt><trkpt lat="51.7461578362" lon="-1.8274468370"><ele>119.34</ele><time>2015-11-11T11:42:19Z</time></trkpt><trkpt lat="51.7461668886" lon="-1.8274563923"><ele>125.59</ele><time>2015-11-11T11:42:20Z</time></trkpt><trkpt lat="51.7461945489" lon="-1.8274679594"><ele>127.03</ele><time>2015-11-11T11:42:22Z</time></trkpt><trkpt lat="51.7462098040" lon="-1.8274646066"><ele>130.40</ele><time>2015-11-11T11:42:23Z</time></trkpt><trkpt lat="51.7462223768" lon="-1.8274630141"><ele>126.55</ele><time>2015-11-11T11:42:24Z</time></trkpt><trkpt lat="51.7462354526" lon="-1.8274647743"><ele>120.78</ele><time>2015-11-11T11:42:25Z</time></trkpt><trkpt lat="51.7462479416" lon="-1.8274725694"><ele>123.19</ele><time>2015-11-11T11:42:26Z</time></trkpt><trkpt lat="51.7462723330" lon="-1.8275018223"><ele>127.03</ele><time>2015-11-11T11:42:28Z</time></trkpt><trkpt lat="51.7463092972" lon="-1.8275340926"><ele>122.22</ele><time>2015-11-11T11:42:32Z</time></trkpt><trkpt lat="51.7463180143" lon="-1.8275422230"><ele>126.07</ele><time>2015-11-11T11:42:33Z</time></trkpt><trkpt lat="51.7463391367" lon="-1.8275622558"><ele>127.03</ele><time>2015-11-11T11:42:35Z</time></trkpt><trkpt lat="51.7463667970" lon="-1.8275933526"><ele>123.67</ele><time>2015-11-11T11:42:39Z</time></trkpt><trkpt lat="51.7463853210" lon="-1.8276022375"><ele>128.47</ele><time>2015-11-11T11:42:41Z</time></trkpt><trkpt lat="51.7463942897" lon="-1.8276070990"><ele>127.51</ele><time>2015-11-11T11:42:42Z</time></trkpt><trkpt lat="51.7464041803" lon="-1.8276159000"><ele>131.36</ele><time>2015-11-11T11:42:43Z</time></trkpt><trkpt lat="51.7464141548" lon="-1.8276241980"><ele>127.03</ele><time>2015-11-11T11:42:44Z</time></trkpt><trkpt lat="51.7464259733" lon="-1.8276278861"><ele>122.71</ele><time>2015-11-11T11:42:45Z</time></trkpt><trkpt lat="51.7464373726" lon="-1.8276299816"><ele>127.99</ele><time>2015-11-11T11:42:46Z</time></trkpt><trkpt lat="51.7464476824" lon="-1.8276328314"><ele>124.15</ele><time>2015-11-11T11:42:47Z</time></trkpt><trkpt lat="51.7464665417" lon="-1.8276371900"><ele>127.99</ele><time>2015-11-11T11:42:49Z</time></trkpt><trkpt lat="51.7464895919" lon="-1.8276485894"><ele>122.71</ele><time>2015-11-11T11:42:52Z</time></trkpt><trkpt lat="51.7464973871" lon="-1.8276557140"><ele>126.07</ele><time>2015-11-11T11:42:53Z</time></trkpt><trkpt lat="51.7465284839" lon="-1.8276739866"><ele>130.88</ele><time>2015-11-11T11:42:56Z</time></trkpt><trkpt lat="51.7465584911" lon="-1.8277082685"><ele>126.07</ele><time>2015-11-11T11:43:00Z</time></trkpt><trkpt lat="51.7465947010" lon="-1.8277584761"><ele>130.40</ele><time>2015-11-11T11:43:04Z</time></trkpt><trkpt lat="51.7466043402" lon="-1.8277637567"><ele>127.03</ele><time>2015-11-11T11:43:05Z</time></trkpt><trkpt lat="51.7466110457" lon="-1.8277669419"><ele>127.03</ele><time>2015-11-11T11:43:06Z</time></trkpt><trkpt lat="51.7466203496" lon="-1.8277726416"><ele>128.95</ele><time>2015-11-11T11:43:08Z</time></trkpt><trkpt lat="51.7466337606" lon="-1.8278096896"><ele>120.30</ele><time>2015-11-11T11:43:25Z</time></trkpt><trkpt lat="51.7466341797" lon="-1.8278097734"><ele>131.36</ele><time>2015-11-11T11:43:26Z</time></trkpt><trkpt lat="51.7466313299" lon="-1.8278080970"><ele>127.99</ele><time>2015-11-11T11:43:56Z</time></trkpt><trkpt lat="51.7466289829" lon="-1.8278128747"><ele>133.76</ele><time>2015-11-11T11:44:06Z</time></trkpt><trkpt lat="51.7466267198" lon="-1.8278186582"><ele>129.43</ele><time>2015-11-11T11:44:07Z</time></trkpt><trkpt lat="51.7466360237" lon="-1.8278160598"><ele>129.43</ele><time>2015-11-11T11:44:32Z</time></trkpt><trkpt lat="51.7466597445" lon="-1.8278287165"><ele>127.99</ele><time>2015-11-11T11:44:34Z</time></trkpt><trkpt lat="51.7467197590" lon="-1.8278753199"><ele>131.36</ele><time>2015-11-11T11:44:44Z</time></trkpt><trkpt lat="51.7467362713" lon="-1.8279033992"><ele>126.07</ele><time>2015-11-11T11:44:47Z</time></trkpt><trkpt lat="51.7467448208" lon="-1.8279142957"><ele>129.43</ele><time>2015-11-11T11:44:48Z</time></trkpt><trkpt lat="51.7468297295" lon="-1.8279901519"><ele>129.92</ele><time>2015-11-11T11:44:56Z</time></trkpt><trkpt lat="51.7468541209" lon="-1.8280121963"><ele>125.59</ele><time>2015-11-11T11:44:58Z</time></trkpt><trkpt lat="51.7468681186" lon="-1.8280203268"><ele>129.43</ele><time>2015-11-11T11:44:59Z</time></trkpt><trkpt lat="51.7469090223" lon="-1.8280500825"><ele>125.11</ele><time>2015-11-11T11:45:02Z</time></trkpt><trkpt lat="51.7469214275" lon="-1.8280603085"><ele>131.36</ele><time>2015-11-11T11:45:03Z</time></trkpt><trkpt lat="51.7469342519" lon="-1.8280722946"><ele>131.36</ele><time>2015-11-11T11:45:04Z</time></trkpt><trkpt lat="51.7469718866" lon="-1.8281043135"><ele>127.03</ele><time>2015-11-11T11:45:07Z</time></trkpt><trkpt lat="51.7469780892" lon="-1.8281122763"><ele>132.32</ele><time>2015-11-11T11:45:08Z</time></trkpt><trkpt lat="51.7469813582" lon="-1.8281235080"><ele>131.36</ele><time>2015-11-11T11:45:09Z</time></trkpt><trkpt lat="51.7469919194" lon="-1.8281474803"><ele>127.03</ele><time>2015-11-11T11:45:11Z</time></trkpt><trkpt lat="51.7470125388" lon="-1.8281722907"><ele>130.40</ele><time>2015-11-11T11:45:13Z</time></trkpt><trkpt lat="51.7470987886" lon="-1.8283005338"><ele>132.32</ele><time>2015-11-11T11:45:21Z</time></trkpt><trkpt lat="51.7471220065" lon="-1.8283450417"><ele>127.99</ele><time>2015-11-11T11:45:24Z</time></trkpt><trkpt lat="51.7471421231" lon="-1.8283742107"><ele>131.36</ele><time>2015-11-11T11:45:26Z</time></trkpt><trkpt lat="51.7471816018" lon="-1.8284441158"><ele>133.28</ele><time>2015-11-11T11:45:30Z</time></trkpt><trkpt lat="51.7472036462" lon="-1.8284732848"><ele>130.88</ele><time>2015-11-11T11:45:32Z</time></trkpt><trkpt lat="51.7472220864" lon="-1.8284998555"><ele>132.80</ele><time>2015-11-11T11:45:34Z</time></trkpt><trkpt lat="51.7472312227" lon="-1.8285258394"><ele>127.99</ele><time>2015-11-11T11:45:36Z</time></trkpt><trkpt lat="51.7472385149" lon="-1.8285447825"><ele>129.92</ele><time>2015-11-11T11:45:37Z</time></trkpt><trkpt lat="51.7472576257" lon="-1.8285804056"><ele>131.84</ele><time>2015-11-11T11:45:39Z</time></trkpt><trkpt lat="51.7473161314" lon="-1.8286949024"><ele>133.76</ele><time>2015-11-11T11:45:46Z</time></trkpt><trkpt lat="51.7473289557" lon="-1.8287224788"><ele>129.92</ele><time>2015-11-11T11:45:48Z</time></trkpt><trkpt lat="51.7473483179" lon="-1.8287575990"><ele>133.28</ele><time>2015-11-11T11:45:50Z</time></trkpt><trkpt lat="51.7473598011" lon="-1.8287720159"><ele>132.32</ele><time>2015-11-11T11:45:51Z</time></trkpt><trkpt lat="51.7474198155" lon="-1.8288731016"><ele>134.24</ele><time>2015-11-11T11:45:58Z</time></trkpt><trkpt lat="51.7474356573" lon="-1.8288959842"><ele>129.92</ele><time>2015-11-11T11:46:00Z</time></trkpt><trkpt lat="51.7474466376" lon="-1.8289105687"><ele>130.40</ele><time>2015-11-11T11:46:01Z</time></trkpt><trkpt lat="51.7474687658" lon="-1.8289659731"><ele>132.80</ele><time>2015-11-11T11:46:04Z</time></trkpt><trkpt lat="51.7474972643" lon="-1.8290462717"><ele>129.43</ele><time>2015-11-11T11:46:08Z</time></trkpt><trkpt lat="51.7475022934" lon="-1.8290616106"><ele>134.72</ele><time>2015-11-11T11:46:09Z</time></trkpt><trkpt lat="51.7475129385" lon="-1.8290941324"><ele>131.36</ele><time>2015-11-11T11:46:11Z</time></trkpt><trkpt lat="51.7475571111" lon="-1.8292173464"><ele>135.68</ele><time>2015-11-11T11:46:17Z</time></trkpt><trkpt lat="51.7475723661" lon="-1.8292508740"><ele>131.84</ele><time>2015-11-11T11:46:19Z</time></trkpt><trkpt lat="51.7475805804" lon="-1.8292764388"><ele>134.72</ele><time>2015-11-11T11:46:21Z</time></trkpt><trkpt lat="51.7476030439" lon="-1.8293812964"><ele>132.80</ele><time>2015-11-11T11:46:26Z</time></trkpt><trkpt lat="51.7476151977" lon="-1.8294308335"><ele>136.64</ele><time>2015-11-11T11:46:28Z</time></trkpt><trkpt lat="51.7476201430" lon="-1.8294523750"><ele>134.72</ele><time>2015-11-11T11:46:29Z</time></trkpt><trkpt lat="51.7476291116" lon="-1.8294825498"><ele>130.88</ele><time>2015-11-11T11:46:31Z</time></trkpt><trkpt lat="51.7476725299" lon="-1.8296108767"><ele>134.24</ele><time>2015-11-11T11:46:38Z</time></trkpt><trkpt lat="51.7477084883" lon="-1.8297609128"><ele>129.92</ele><time>2015-11-11T11:46:46Z</time></trkpt><trkpt lat="51.7477356456" lon="-1.8298412953"><ele>134.24</ele><time>2015-11-11T11:46:50Z</time></trkpt><trkpt lat="51.7477407586" lon="-1.8298618309"><ele>133.28</ele><time>2015-11-11T11:46:51Z</time></trkpt><trkpt lat="51.7477475479" lon="-1.8298979569"><ele>129.43</ele><time>2015-11-11T11:46:53Z</time></trkpt><trkpt lat="51.7477483861" lon="-1.8299158942"><ele>133.28</ele><time>2015-11-11T11:46:54Z</time></trkpt><trkpt lat="51.7478021141" lon="-1.8301607296"><ele>132.32</ele><time>2015-11-11T11:47:07Z</time></trkpt><trkpt lat="51.7478176206" lon="-1.8302030582"><ele>135.20</ele><time>2015-11-11T11:47:10Z</time></trkpt><trkpt lat="51.7478199676" lon="-1.8302152958"><ele>134.24</ele><time>2015-11-11T11:47:11Z</time></trkpt><trkpt lat="51.7478256673" lon="-1.8302439619"><ele>131.36</ele><time>2015-11-11T11:47:13Z</time></trkpt><trkpt lat="51.7478590272" lon="-1.8303649127"><ele>134.72</ele><time>2015-11-11T11:47:19Z</time></trkpt><trkpt lat="51.7478659842" lon="-1.8304117676"><ele>132.32</ele><time>2015-11-11T11:47:21Z</time></trkpt><trkpt lat="51.7478754558" lon="-1.8304458819"><ele>133.76</ele><time>2015-11-11T11:47:23Z</time></trkpt><trkpt lat="51.7478884477" lon="-1.8304740451"><ele>130.40</ele><time>2015-11-11T11:47:25Z</time></trkpt><trkpt lat="51.7479217239" lon="-1.8306483887"><ele>133.28</ele><time>2015-11-11T11:47:33Z</time></trkpt><trkpt lat="51.7479213886" lon="-1.8306879513"><ele>131.84</ele><time>2015-11-11T11:47:35Z</time></trkpt><trkpt lat="51.7479587719" lon="-1.8308089022"><ele>134.72</ele><time>2015-11-11T11:47:41Z</time></trkpt><trkpt lat="51.7479634658" lon="-1.8308302760"><ele>133.76</ele><time>2015-11-11T11:47:42Z</time></trkpt><trkpt lat="51.7479640525" lon="-1.8308945652"><ele>136.64</ele><time>2015-11-11T11:47:45Z</time></trkpt><trkpt lat="51.7479616217" lon="-1.8309128378"><ele>133.28</ele><time>2015-11-11T11:47:46Z</time></trkpt><trkpt lat="51.7479668185" lon="-1.8309684098"><ele>131.36</ele><time>2015-11-11T11:47:49Z</time></trkpt><trkpt lat="51.7479865160" lon="-1.8310229760"><ele>133.76</ele><time>2015-11-11T11:47:52Z</time></trkpt><trkpt lat="51.7479973286" lon="-1.8310833257"><ele>131.36</ele><time>2015-11-11T11:47:56Z</time></trkpt><trkpt lat="51.7480243184" lon="-1.8312213756"><ele>131.36</ele><time>2015-11-11T11:48:04Z</time></trkpt><trkpt lat="51.7480755318" lon="-1.8314584997"><ele>131.36</ele><time>2015-11-11T11:48:16Z</time></trkpt><trkpt lat="51.7480971571" lon="-1.8316292390"><ele>127.99</ele><time>2015-11-11T11:48:24Z</time></trkpt><trkpt lat="51.7481033597" lon="-1.8316486012"><ele>129.43</ele><time>2015-11-11T11:48:25Z</time></trkpt><trkpt lat="51.7481168546" lon="-1.8316867389"><ele>130.88</ele><time>2015-11-11T11:48:27Z</time></trkpt><trkpt lat="51.7481492087" lon="-1.8317815382"><ele>128.47</ele><time>2015-11-11T11:48:33Z</time></trkpt><trkpt lat="51.7481832393" lon="-1.8318925984"><ele>128.95</ele><time>2015-11-11T11:48:39Z</time></trkpt><trkpt lat="51.7481979914" lon="-1.8319179956"><ele>130.40</ele><time>2015-11-11T11:48:41Z</time></trkpt><trkpt lat="51.7482001707" lon="-1.8319329992"><ele>127.03</ele><time>2015-11-11T11:48:42Z</time></trkpt><trkpt lat="51.7482016794" lon="-1.8319523614"><ele>129.92</ele><time>2015-11-11T11:48:43Z</time></trkpt><trkpt lat="51.7482371349" lon="-1.8320587277"><ele>131.36</ele><time>2015-11-11T11:48:52Z</time></trkpt><trkpt lat="51.7482498754" lon="-1.8320775032"><ele>128.95</ele><time>2015-11-11T11:48:54Z</time></trkpt><trkpt lat="51.7482560780" lon="-1.8321137130"><ele>133.76</ele><time>2015-11-11T11:48:56Z</time></trkpt><trkpt lat="51.7482621130" lon="-1.8321432173"><ele>129.43</ele><time>2015-11-11T11:48:58Z</time></trkpt><trkpt lat="51.7482637055" lon="-1.8321568798"><ele>129.43</ele><time>2015-11-11T11:48:59Z</time></trkpt><trkpt lat="51.7483108118" lon="-1.8323494960"><ele>129.92</ele><time>2015-11-11T11:49:11Z</time></trkpt><trkpt lat="51.7483400647" lon="-1.8324470613"><ele>129.92</ele><time>2015-11-11T11:49:18Z</time></trkpt><trkpt lat="51.7483562417" lon="-1.8325208221"><ele>133.28</ele><time>2015-11-11T11:49:23Z</time></trkpt><trkpt lat="51.7483602650" lon="-1.8325367477"><ele>128.95</ele><time>2015-11-11T11:49:24Z</time></trkpt><trkpt lat="51.7483647913" lon="-1.8325503264"><ele>129.92</ele><time>2015-11-11T11:49:25Z</time></trkpt><trkpt lat="51.7484574951" lon="-1.8328523263"><ele>128.95</ele><time>2015-11-11T11:49:43Z</time></trkpt><trkpt lat="51.7484744266" lon="-1.8328910507"><ele>131.84</ele><time>2015-11-11T11:49:46Z</time></trkpt><trkpt lat="51.7484982312" lon="-1.8329317030"><ele>128.47</ele><time>2015-11-11T11:49:50Z</time></trkpt><trkpt lat="51.7485179286" lon="-1.8329696730"><ele>132.80</ele><time>2015-11-11T11:49:53Z</time></trkpt><trkpt lat="51.7485293280" lon="-1.8329882808"><ele>128.47</ele><time>2015-11-11T11:49:55Z</time></trkpt><trkpt lat="51.7485501152" lon="-1.8330311123"><ele>132.32</ele><time>2015-11-11T11:49:58Z</time></trkpt><trkpt lat="51.7485690583" lon="-1.8330613710"><ele>128.47</ele><time>2015-11-11T11:50:01Z</time></trkpt><trkpt lat="51.7485802900" lon="-1.8330821581"><ele>130.88</ele><time>2015-11-11T11:50:03Z</time></trkpt><trkpt lat="51.7486446630" lon="-1.8332355469"><ele>130.88</ele><time>2015-11-11T11:50:17Z</time></trkpt><trkpt lat="51.7486816272" lon="-1.8333611079"><ele>126.55</ele><time>2015-11-11T11:50:28Z</time></trkpt><trkpt lat="51.7486861534" lon="-1.8333757762"><ele>131.36</ele><time>2015-11-11T11:50:29Z</time></trkpt><trkpt lat="51.7487012409" lon="-1.8334084656"><ele>126.07</ele><time>2015-11-11T11:50:32Z</time></trkpt><trkpt lat="51.7487066891" lon="-1.8334197812"><ele>127.51</ele><time>2015-11-11T11:50:33Z</time></trkpt><trkpt lat="51.7487111315" lon="-1.8334284145"><ele>132.80</ele><time>2015-11-11T11:50:34Z</time></trkpt><trkpt lat="51.7487164121" lon="-1.8334364612"><ele>130.88</ele><time>2015-11-11T11:50:35Z</time></trkpt><trkpt lat="51.7488004826" lon="-1.8336465117"><ele>131.84</ele><time>2015-11-11T11:50:52Z</time></trkpt><trkpt lat="51.7488906719" lon="-1.8338194303"><ele>132.32</ele><time>2015-11-11T11:51:08Z</time></trkpt><trkpt lat="51.7489063460" lon="-1.8338493537"><ele>128.95</ele><time>2015-11-11T11:51:16Z</time></trkpt><trkpt lat="51.7489141412" lon="-1.8338589091"><ele>137.61</ele><time>2015-11-11T11:51:19Z</time></trkpt><trkpt lat="51.7489159852" lon="-1.8338648602"><ele>132.80</ele><time>2015-11-11T11:51:20Z</time></trkpt><trkpt lat="51.7489188351" lon="-1.8338841386"><ele>128.95</ele><time>2015-11-11T11:51:22Z</time></trkpt><trkpt lat="51.7489210144" lon="-1.8338913471"><ele>132.32</ele><time>2015-11-11T11:51:23Z</time></trkpt><trkpt lat="51.7489231098" lon="-1.8338964600"><ele>140.49</ele><time>2015-11-11T11:51:24Z</time></trkpt><trkpt lat="51.7489231098" lon="-1.8338961247"><ele>132.32</ele><time>2015-11-11T11:51:25Z</time></trkpt><trkpt lat="51.7489236128" lon="-1.8338967115"><ele>136.16</ele><time>2015-11-11T11:51:26Z</time></trkpt><trkpt lat="51.7489290610" lon="-1.8339077756"><ele>133.28</ele><time>2015-11-11T11:51:28Z</time></trkpt><trkpt lat="51.7489327490" lon="-1.8339268863"><ele>128.95</ele><time>2015-11-11T11:51:30Z</time></trkpt><trkpt lat="51.7489338387" lon="-1.8339317478"><ele>132.32</ele><time>2015-11-11T11:51:31Z</time></trkpt><trkpt lat="51.7489371076" lon="-1.8339296523"><ele>136.16</ele><time>2015-11-11T11:51:36Z</time></trkpt><trkpt lat="51.7489383649" lon="-1.8339293171"><ele>130.40</ele><time>2015-11-11T11:51:37Z</time></trkpt><trkpt lat="51.7489465792" lon="-1.8339211866"><ele>134.24</ele><time>2015-11-11T11:51:41Z</time></trkpt><trkpt lat="51.7489472497" lon="-1.8339197617"><ele>128.95</ele><time>2015-11-11T11:51:46Z</time></trkpt><trkpt lat="51.7489548773" lon="-1.8339283112"><ele>130.88</ele><time>2015-11-11T11:51:47Z</time></trkpt><trkpt lat="51.7489776760" lon="-1.8339471705"><ele>131.84</ele><time>2015-11-11T11:51:49Z</time></trkpt><trkpt lat="51.7490314040" lon="-1.8340254575"><ele>133.76</ele><time>2015-11-11T11:51:55Z</time></trkpt><trkpt lat="51.7490524426" lon="-1.8340786826"><ele>131.36</ele><time>2015-11-11T11:51:58Z</time></trkpt><trkpt lat="51.7490614951" lon="-1.8340968713"><ele>131.36</ele><time>2015-11-11T11:51:59Z</time></trkpt><trkpt lat="51.7490769178" lon="-1.8341385294"><ele>132.32</ele><time>2015-11-11T11:52:01Z</time></trkpt><trkpt lat="51.7490865570" lon="-1.8341540359"><ele>135.68</ele><time>2015-11-11T11:52:02Z</time></trkpt><trkpt lat="51.7491046619" lon="-1.8341761641"><ele>131.36</ele><time>2015-11-11T11:52:04Z</time></trkpt><trkpt lat="51.7491116188" lon="-1.8341887370"><ele>127.03</ele><time>2015-11-11T11:52:05Z</time></trkpt><trkpt lat="51.7491925042" lon="-1.8343572970"><ele>133.28</ele><time>2015-11-11T11:52:14Z</time></trkpt><trkpt lat="51.7492090166" lon="-1.8343743961"><ele>129.92</ele><time>2015-11-11T11:52:16Z</time></trkpt><trkpt lat="51.7492132075" lon="-1.8343882263"><ele>131.84</ele><time>2015-11-11T11:52:17Z</time></trkpt><trkpt lat="51.7492697854" lon="-1.8345429562"><ele>133.28</ele><time>2015-11-11T11:52:25Z</time></trkpt><trkpt lat="51.7492924165" lon="-1.8345765676"><ele>129.43</ele><time>2015-11-11T11:52:28Z</time></trkpt><trkpt lat="51.7493168917" lon="-1.8346136995"><ele>131.84</ele><time>2015-11-11T11:52:31Z</time></trkpt><trkpt lat="51.7493903171" lon="-1.8347702734"><ele>131.84</ele><time>2015-11-11T11:52:41Z</time></trkpt><trkpt lat="51.7495065741" lon="-1.8349486403"><ele>130.40</ele><time>2015-11-11T11:52:54Z</time></trkpt><trkpt lat="51.7495507468" lon="-1.8350149412"><ele>133.76</ele><time>2015-11-11T11:52:59Z</time></trkpt><trkpt lat="51.7495637387" lon="-1.8350369856"><ele>129.43</ele><time>2015-11-11T11:53:01Z</time></trkpt><trkpt lat="51.7495882977" lon="-1.8350788951"><ele>130.88</ele><time>2015-11-11T11:53:04Z</time></trkpt><trkpt lat="51.7496985197" lon="-1.8352700863"><ele>131.84</ele><time>2015-11-11T11:53:17Z</time></trkpt><trkpt lat="51.7497170437" lon="-1.8352949806"><ele>129.43</ele><time>2015-11-11T11:53:19Z</time></trkpt><trkpt lat="51.7497256771" lon="-1.8353054579"><ele>133.28</ele><time>2015-11-11T11:53:20Z</time></trkpt><trkpt lat="51.7497354001" lon="-1.8353189528"><ele>129.43</ele><time>2015-11-11T11:53:21Z</time></trkpt><trkpt lat="51.7497445364" lon="-1.8353367224"><ele>126.07</ele><time>2015-11-11T11:53:22Z</time></trkpt><trkpt lat="51.7497530021" lon="-1.8353502173"><ele>129.92</ele><time>2015-11-11T11:53:23Z</time></trkpt><trkpt lat="51.7497907206" lon="-1.8354119081"><ele>129.43</ele><time>2015-11-11T11:53:28Z</time></trkpt><trkpt lat="51.7498711031" lon="-1.8355440907"><ele>131.84</ele><time>2015-11-11T11:53:39Z</time></trkpt><trkpt lat="51.7498770542" lon="-1.8355497066"><ele>128.47</ele><time>2015-11-11T11:53:40Z</time></trkpt><trkpt lat="51.7498812452" lon="-1.8355594296"><ele>129.43</ele><time>2015-11-11T11:53:41Z</time></trkpt><trkpt lat="51.7499391641" lon="-1.8356412370"><ele>130.40</ele><time>2015-11-11T11:53:49Z</time></trkpt><trkpt lat="51.7499456182" lon="-1.8356517982"><ele>130.40</ele><time>2015-11-11T11:53:50Z</time></trkpt><trkpt lat="51.7499579396" lon="-1.8356730882"><ele>131.84</ele><time>2015-11-11T11:53:52Z</time></trkpt><trkpt lat="51.7499690037" lon="-1.8356934562"><ele>130.40</ele><time>2015-11-11T11:53:54Z</time></trkpt><trkpt lat="51.7500543315" lon="-1.8358841445"><ele>130.40</ele><time>2015-11-11T11:54:09Z</time></trkpt><trkpt lat="51.7500819918" lon="-1.8359263055"><ele>130.88</ele><time>2015-11-11T11:54:14Z</time></trkpt><trkpt lat="51.7501961533" lon="-1.8361326680"><ele>131.36</ele><time>2015-11-11T11:54:32Z</time></trkpt><trkpt lat="51.7502280883" lon="-1.8361731526"><ele>130.40</ele><time>2015-11-11T11:54:36Z</time></trkpt><trkpt lat="51.7502881866" lon="-1.8363556266"><ele>134.72</ele><time>2015-11-11T11:54:50Z</time></trkpt><trkpt lat="51.7502944730" lon="-1.8363606557"><ele>127.03</ele><time>2015-11-11T11:54:51Z</time></trkpt><trkpt lat="51.7503013462" lon="-1.8363680318"><ele>131.36</ele><time>2015-11-11T11:54:52Z</time></trkpt><trkpt lat="51.7503390647" lon="-1.8364329915"><ele>130.40</ele><time>2015-11-11T11:54:59Z</time></trkpt><trkpt lat="51.7503447644" lon="-1.8364448100"><ele>131.84</ele><time>2015-11-11T11:55:00Z</time></trkpt><trkpt lat="51.7503912002" lon="-1.8365210854"><ele>132.32</ele><time>2015-11-11T11:55:07Z</time></trkpt><trkpt lat="51.7504915316" lon="-1.8367097620"><ele>133.76</ele><time>2015-11-11T11:55:22Z</time></trkpt><trkpt lat="51.7505041044" lon="-1.8367240112"><ele>129.92</ele><time>2015-11-11T11:55:23Z</time></trkpt><trkpt lat="51.7505095527" lon="-1.8367412779"><ele>132.32</ele><time>2015-11-11T11:55:24Z</time></trkpt><trkpt lat="51.7505289149" lon="-1.8367832713"><ele>134.72</ele><time>2015-11-11T11:55:27Z</time></trkpt><trkpt lat="51.7505333573" lon="-1.8367909826"><ele>129.92</ele><time>2015-11-11T11:55:28Z</time></trkpt><trkpt lat="51.7505400628" lon="-1.8367997836"><ele>131.36</ele><time>2015-11-11T11:55:29Z</time></trkpt><trkpt lat="51.7505753506" lon="-1.8368250970"><ele>134.72</ele><time>2015-11-11T11:55:33Z</time></trkpt><trkpt lat="51.7505791225" lon="-1.8368318025"><ele>133.76</ele><time>2015-11-11T11:55:34Z</time></trkpt><trkpt lat="51.7505842354" lon="-1.8368372507"><ele>128.95</ele><time>2015-11-11T11:55:35Z</time></trkpt><trkpt lat="51.7505924497" lon="-1.8368386757"><ele>131.84</ele><time>2015-11-11T11:55:36Z</time></trkpt><trkpt lat="51.7506096326" lon="-1.8368534278"><ele>135.20</ele><time>2015-11-11T11:55:38Z</time></trkpt><trkpt lat="51.7506173439" lon="-1.8368579540"><ele>133.28</ele><time>2015-11-11T11:55:39Z</time></trkpt><trkpt lat="51.7506239656" lon="-1.8368649110"><ele>129.43</ele><time>2015-11-11T11:55:40Z</time></trkpt><trkpt lat="51.7506287433" lon="-1.8368750531"><ele>131.84</ele><time>2015-11-11T11:55:41Z</time></trkpt><trkpt lat="51.7506619357" lon="-1.8369794078"><ele>132.80</ele><time>2015-11-11T11:55:49Z</time></trkpt><trkpt lat="51.7506829742" lon="-1.8370324653"><ele>134.72</ele><time>2015-11-11T11:55:52Z</time></trkpt><trkpt lat="51.7507105507" lon="-1.8370711058"><ele>131.36</ele><time>2015-11-11T11:55:56Z</time></trkpt><trkpt lat="51.7507320084" lon="-1.8370958325"><ele>134.72</ele><time>2015-11-11T11:55:59Z</time></trkpt><trkpt lat="51.7507444974" lon="-1.8371080700"><ele>131.84</ele><time>2015-11-11T11:56:01Z</time></trkpt><trkpt lat="51.7507620156" lon="-1.8371255882"><ele>135.20</ele><time>2015-11-11T11:56:03Z</time></trkpt><trkpt lat="51.7507717386" lon="-1.8371328805"><ele>133.76</ele><time>2015-11-11T11:56:04Z</time></trkpt><trkpt lat="51.7507838085" lon="-1.8371459562"><ele>132.80</ele><time>2015-11-11T11:56:06Z</time></trkpt><trkpt lat="51.7508417275" lon="-1.8372033723"><ele>132.32</ele><time>2015-11-11T11:56:13Z</time></trkpt><trkpt lat="51.7508568149" lon="-1.8372280989"><ele>133.28</ele><time>2015-11-11T11:56:15Z</time></trkpt><trkpt lat="51.7508772667" lon="-1.8372843415"><ele>134.24</ele><time>2015-11-11T11:56:20Z</time></trkpt><trkpt lat="51.7509433161" lon="-1.8374451902"><ele>137.13</ele><time>2015-11-11T11:56:33Z</time></trkpt><trkpt lat="51.7509471718" lon="-1.8374530692"><ele>133.76</ele><time>2015-11-11T11:56:34Z</time></trkpt><trkpt lat="51.7509554699" lon="-1.8374658935"><ele>132.80</ele><time>2015-11-11T11:56:36Z</time></trkpt><trkpt lat="51.7509672046" lon="-1.8374841660"><ele>133.76</ele><time>2015-11-11T11:56:38Z</time></trkpt><trkpt lat="51.7510408815" lon="-1.8376629520"><ele>134.24</ele><time>2015-11-11T11:56:50Z</time></trkpt><trkpt lat="51.7510578968" lon="-1.8377098907"><ele>133.76</ele><time>2015-11-11T11:56:54Z</time></trkpt><trkpt lat="51.7510967888" lon="-1.8378099706"><ele>136.16</ele><time>2015-11-11T11:57:01Z</time></trkpt><trkpt lat="51.7511027399" lon="-1.8378187716"><ele>132.32</ele><time>2015-11-11T11:57:02Z</time></trkpt><trkpt lat="51.7511109542" lon="-1.8378259800"><ele>135.68</ele><time>2015-11-11T11:57:03Z</time></trkpt><trkpt lat="51.7511515226" lon="-1.8378810491"><ele>132.80</ele><time>2015-11-11T11:57:09Z</time></trkpt><trkpt lat="51.7511976231" lon="-1.8379488587"><ele>136.16</ele><time>2015-11-11T11:57:15Z</time></trkpt><trkpt lat="51.7512096930" lon="-1.8379717413"><ele>132.32</ele><time>2015-11-11T11:57:17Z</time></trkpt><trkpt lat="51.7512246966" lon="-1.8380046822"><ele>135.68</ele><time>2015-11-11T11:57:20Z</time></trkpt><trkpt lat="51.7512348387" lon="-1.8380266428"><ele>132.32</ele><time>2015-11-11T11:57:22Z</time></trkpt><trkpt lat="51.7512510996" lon="-1.8380565662"><ele>136.16</ele><time>2015-11-11T11:57:25Z</time></trkpt><trkpt lat="51.7512572184" lon="-1.8380669598"><ele>132.32</ele><time>2015-11-11T11:57:26Z</time></trkpt><trkpt lat="51.7512687854" lon="-1.8380890880"><ele>132.32</ele><time>2015-11-11T11:57:28Z</time></trkpt><trkpt lat="51.7512909975" lon="-1.8381366972"><ele>130.88</ele><time>2015-11-11T11:57:33Z</time></trkpt><trkpt lat="51.7512951046" lon="-1.8381457496"><ele>132.80</ele><time>2015-11-11T11:57:34Z</time></trkpt><trkpt lat="51.7513067555" lon="-1.8381669559"><ele>136.16</ele><time>2015-11-11T11:57:36Z</time></trkpt><trkpt lat="51.7513127904" lon="-1.8381737452"><ele>130.88</ele><time>2015-11-11T11:57:37Z</time></trkpt><trkpt lat="51.7513312306" lon="-1.8382033333"><ele>134.72</ele><time>2015-11-11T11:57:41Z</time></trkpt><trkpt lat="51.7513332423" lon="-1.8382101227"><ele>131.36</ele><time>2015-11-11T11:57:42Z</time></trkpt><trkpt lat="51.7513424624" lon="-1.8382393755"><ele>135.68</ele><time>2015-11-11T11:57:45Z</time></trkpt><trkpt lat="51.7513454799" lon="-1.8382471707"><ele>132.32</ele><time>2015-11-11T11:57:46Z</time></trkpt><trkpt lat="51.7513714638" lon="-1.8383209314"><ele>133.28</ele><time>2015-11-11T11:57:52Z</time></trkpt><trkpt lat="51.7514870502" lon="-1.8385262042"><ele>132.80</ele><time>2015-11-11T11:58:09Z</time></trkpt><trkpt lat="51.7514976114" lon="-1.8385536131"><ele>136.16</ele><time>2015-11-11T11:58:11Z</time></trkpt><trkpt lat="51.7515027244" lon="-1.8385653477"><ele>132.80</ele><time>2015-11-11T11:58:12Z</time></trkpt><trkpt lat="51.7515753116" lon="-1.8387568742"><ele>131.84</ele><time>2015-11-11T11:58:27Z</time></trkpt><trkpt lat="51.7516042292" lon="-1.8388206605"><ele>131.84</ele><time>2015-11-11T11:58:33Z</time></trkpt><trkpt lat="51.7516252678" lon="-1.8388598040"><ele>131.84</ele><time>2015-11-11T11:58:38Z</time></trkpt><trkpt lat="51.7516325600" lon="-1.8388738856"><ele>132.80</ele><time>2015-11-11T11:58:40Z</time></trkpt><trkpt lat="51.7516344879" lon="-1.8388762325"><ele>131.36</ele><time>2015-11-11T11:58:42Z</time></trkpt><trkpt lat="51.7516715359" lon="-1.8389354087"><ele>132.80</ele><time>2015-11-11T11:58:51Z</time></trkpt><trkpt lat="51.7516809236" lon="-1.8389512505"><ele>130.88</ele><time>2015-11-11T11:58:53Z</time></trkpt><trkpt lat="51.7516917363" lon="-1.8389918189"><ele>132.80</ele><time>2015-11-11T11:58:56Z</time></trkpt><trkpt lat="51.7517254315" lon="-1.8391352333"><ele>129.43</ele><time>2015-11-11T11:59:03Z</time></trkpt><trkpt lat="51.7517531756" lon="-1.8391747121"><ele>133.28</ele><time>2015-11-11T11:59:06Z</time></trkpt><trkpt lat="51.7517814226" lon="-1.8392359838"><ele>128.95</ele><time>2015-11-11T11:59:11Z</time></trkpt><trkpt lat="51.7517862841" lon="-1.8392502330"><ele>130.88</ele><time>2015-11-11T11:59:12Z</time></trkpt><trkpt lat="51.7518011201" lon="-1.8392823357"><ele>132.32</ele><time>2015-11-11T11:59:14Z</time></trkpt><trkpt lat="51.7518079933" lon="-1.8392988481"><ele>128.47</ele><time>2015-11-11T11:59:15Z</time></trkpt><trkpt lat="51.7518134415" lon="-1.8393075652"><ele>131.84</ele><time>2015-11-11T11:59:16Z</time></trkpt><trkpt lat="51.7518448737" lon="-1.8394110817"><ele>130.40</ele><time>2015-11-11T11:59:23Z</time></trkpt><trkpt lat="51.7518941592" lon="-1.8395280931"><ele>133.28</ele><time>2015-11-11T11:59:31Z</time></trkpt><trkpt lat="51.7519142758" lon="-1.8395796418"><ele>129.92</ele><time>2015-11-11T11:59:35Z</time></trkpt><trkpt lat="51.7519287765" lon="-1.8396110740"><ele>131.84</ele><time>2015-11-11T11:59:37Z</time></trkpt><trkpt lat="51.7519365717" lon="-1.8396419194"><ele>130.40</ele><time>2015-11-11T11:59:39Z</time></trkpt><trkpt lat="51.7520458717" lon="-1.8398335297"><ele>131.36</ele><time>2015-11-11T11:59:56Z</time></trkpt><trkpt lat="51.7520609591" lon="-1.8398715835"><ele>127.99</ele><time>2015-11-11T11:59:59Z</time></trkpt><trkpt lat="51.7520689219" lon="-1.8398803007"><ele>130.40</ele><time>2015-11-11T12:00:00Z</time></trkpt><trkpt lat="51.7521479633" lon="-1.8400274031"><ele>131.36</ele><time>2015-11-11T12:00:16Z</time></trkpt><trkpt lat="51.7521731090" lon="-1.8400783651"><ele>129.92</ele><time>2015-11-11T12:00:20Z</time></trkpt><trkpt lat="51.7522063851" lon="-1.8401233759"><ele>129.43</ele><time>2015-11-11T12:00:26Z</time></trkpt><trkpt lat="51.7522228137" lon="-1.8401403073"><ele>132.80</ele><time>2015-11-11T12:00:28Z</time></trkpt><trkpt lat="51.7522280104" lon="-1.8401502818"><ele>129.43</ele><time>2015-11-11T12:00:29Z</time></trkpt><trkpt lat="51.7522985861" lon="-1.8403356057"><ele>131.36</ele><time>2015-11-11T12:00:43Z</time></trkpt><trkpt lat="51.7523042019" lon="-1.8403443228"><ele>130.88</ele><time>2015-11-11T12:00:44Z</time></trkpt><trkpt lat="51.7523089796" lon="-1.8403526209"><ele>127.51</ele><time>2015-11-11T12:00:45Z</time></trkpt><trkpt lat="51.7523121648" lon="-1.8403629307"><ele>128.95</ele><time>2015-11-11T12:00:46Z</time></trkpt><trkpt lat="51.7523168586" lon="-1.8403750006"><ele>129.92</ele><time>2015-11-11T12:00:47Z</time></trkpt><trkpt lat="51.7523384001" lon="-1.8404496834"><ele>128.47</ele><time>2015-11-11T12:00:52Z</time></trkpt><trkpt lat="51.7523688264" lon="-1.8405126315"><ele>128.47</ele><time>2015-11-11T12:00:57Z</time></trkpt><trkpt lat="51.7523798067" lon="-1.8405353464"><ele>131.84</ele><time>2015-11-11T12:00:59Z</time></trkpt><trkpt lat="51.7523958161" lon="-1.8405707181"><ele>127.99</ele><time>2015-11-11T12:01:02Z</time></trkpt><trkpt lat="51.7524338700" lon="-1.8406429701"><ele>127.99</ele><time>2015-11-11T12:01:08Z</time></trkpt><trkpt lat="51.7525331117" lon="-1.8408085965"><ele>127.03</ele><time>2015-11-11T12:01:23Z</time></trkpt><trkpt lat="51.7526321858" lon="-1.8409479037"><ele>127.03</ele><time>2015-11-11T12:01:35Z</time></trkpt><trkpt lat="51.7526864167" lon="-1.8410213292"><ele>126.07</ele><time>2015-11-11T12:01:42Z</time></trkpt><trkpt lat="51.7527074553" lon="-1.8410533480"><ele>133.28</ele><time>2015-11-11T12:01:45Z</time></trkpt><trkpt lat="51.7527155858" lon="-1.8410581257"><ele>127.51</ele><time>2015-11-11T12:01:46Z</time></trkpt><trkpt lat="51.7527278233" lon="-1.8410778232"><ele>126.07</ele><time>2015-11-11T12:01:48Z</time></trkpt><trkpt lat="51.7528320942" lon="-1.8412211537"><ele>126.55</ele><time>2015-11-11T12:02:00Z</time></trkpt><trkpt lat="51.7528862413" lon="-1.8413329683"><ele>124.15</ele><time>2015-11-11T12:02:07Z</time></trkpt><trkpt lat="51.7528947908" lon="-1.8413505703"><ele>124.15</ele><time>2015-11-11T12:02:08Z</time></trkpt><trkpt lat="51.7529169191" lon="-1.8413981795"><ele>130.40</ele><time>2015-11-11T12:02:11Z</time></trkpt><trkpt lat="51.7529231217" lon="-1.8414105009"><ele>127.03</ele><time>2015-11-11T12:02:12Z</time></trkpt><trkpt lat="51.7529447470" lon="-1.8414326292"><ele>125.11</ele><time>2015-11-11T12:02:15Z</time></trkpt><trkpt lat="51.7529632710" lon="-1.8414630555"><ele>123.19</ele><time>2015-11-11T12:02:17Z</time></trkpt><trkpt lat="51.7529708985" lon="-1.8414763827"><ele>125.11</ele><time>2015-11-11T12:02:18Z</time></trkpt><trkpt lat="51.7530427314" lon="-1.8415482994"><ele>126.55</ele><time>2015-11-11T12:02:26Z</time></trkpt><trkpt lat="51.7530462518" lon="-1.8415500596"><ele>124.63</ele><time>2015-11-11T12:02:29Z</time></trkpt><trkpt lat="51.7530506942" lon="-1.8415470421"><ele>120.78</ele><time>2015-11-11T12:02:39Z</time></trkpt><trkpt lat="51.7530546337" lon="-1.8415425997"><ele>126.07</ele><time>2015-11-11T12:02:40Z</time></trkpt><trkpt lat="51.7530647758" lon="-1.8415269256"><ele>127.03</ele><time>2015-11-11T12:02:42Z</time></trkpt><trkpt lat="51.7530776840" lon="-1.8415017799"><ele>125.11</ele><time>2015-11-11T12:02:44Z</time></trkpt><trkpt lat="51.7531396262" lon="-1.8414388318"><ele>124.15</ele><time>2015-11-11T12:02:52Z</time></trkpt><trkpt lat="51.7532041669" lon="-1.8413482234"><ele>128.47</ele><time>2015-11-11T12:03:02Z</time></trkpt><trkpt lat="51.7532252055" lon="-1.8413291126"><ele>124.15</ele><time>2015-11-11T12:03:04Z</time></trkpt><trkpt lat="51.7532659415" lon="-1.8412988540"><ele>128.95</ele><time>2015-11-11T12:03:08Z</time></trkpt><trkpt lat="51.7532914225" lon="-1.8412908074"><ele>121.74</ele><time>2015-11-11T12:03:10Z</time></trkpt><trkpt lat="51.7533040792" lon="-1.8412804976"><ele>127.03</ele><time>2015-11-11T12:03:11Z</time></trkpt><trkpt lat="51.7533436418" lon="-1.8412400968"><ele>122.22</ele><time>2015-11-11T12:03:15Z</time></trkpt><trkpt lat="51.7533500120" lon="-1.8412318826"><ele>126.55</ele><time>2015-11-11T12:03:16Z</time></trkpt><trkpt lat="51.7535106931" lon="-1.8411160447"><ele>126.55</ele><time>2015-11-11T12:03:31Z</time></trkpt><trkpt lat="51.7535790056" lon="-1.8410602212"><ele>123.67</ele><time>2015-11-11T12:03:39Z</time></trkpt><trkpt lat="51.7535859626" lon="-1.8410530966"><ele>127.03</ele><time>2015-11-11T12:03:40Z</time></trkpt><trkpt lat="51.7536084261" lon="-1.8410393503"><ele>129.92</ele><time>2015-11-11T12:03:42Z</time></trkpt><trkpt lat="51.7536179814" lon="-1.8410275318"><ele>126.55</ele><time>2015-11-11T12:03:43Z</time></trkpt><trkpt lat="51.7537275329" lon="-1.8409453891"><ele>129.92</ele><time>2015-11-11T12:03:54Z</time></trkpt><trkpt lat="51.7537650000" lon="-1.8409086764"><ele>125.11</ele><time>2015-11-11T12:03:58Z</time></trkpt><trkpt lat="51.7538142856" lon="-1.8408702035"><ele>128.95</ele><time>2015-11-11T12:04:02Z</time></trkpt><trkpt lat="51.7538315523" lon="-1.8408567086"><ele>127.03</ele><time>2015-11-11T12:04:04Z</time></trkpt><trkpt lat="51.7538498249" lon="-1.8408371788"><ele>127.99</ele><time>2015-11-11T12:04:06Z</time></trkpt><trkpt lat="51.7539515812" lon="-1.8407489173"><ele>127.51</ele><time>2015-11-11T12:04:18Z</time></trkpt><trkpt lat="51.7539863661" lon="-1.8407103606"><ele>125.59</ele><time>2015-11-11T12:04:23Z</time></trkpt><trkpt lat="51.7539952509" lon="-1.8407024816"><ele>127.99</ele><time>2015-11-11T12:04:24Z</time></trkpt><trkpt lat="51.7541378271" lon="-1.8405811116"><ele>128.47</ele><time>2015-11-11T12:04:38Z</time></trkpt><trkpt lat="51.7542398348" lon="-1.8404989690"><ele>128.47</ele><time>2015-11-11T12:04:50Z</time></trkpt><trkpt lat="51.7542821635" lon="-1.8404595740"><ele>127.51</ele><time>2015-11-11T12:04:55Z</time></trkpt><trkpt lat="51.7543007713" lon="-1.8404470012"><ele>128.95</ele><time>2015-11-11T12:04:57Z</time></trkpt><trkpt lat="51.7543410882" lon="-1.8404206820"><ele>127.51</ele><time>2015-11-11T12:05:02Z</time></trkpt><trkpt lat="51.7543657310" lon="-1.8403926026"><ele>131.84</ele><time>2015-11-11T12:05:05Z</time></trkpt><trkpt lat="51.7543790583" lon="-1.8403708097"><ele>127.03</ele><time>2015-11-11T12:05:07Z</time></trkpt><trkpt lat="51.7545036133" lon="-1.8402702268"><ele>128.47</ele><time>2015-11-11T12:05:20Z</time></trkpt><trkpt lat="51.7545255739" lon="-1.8402503617"><ele>129.43</ele><time>2015-11-11T12:05:22Z</time></trkpt><trkpt lat="51.7546772864" lon="-1.8401271477"><ele>130.40</ele><time>2015-11-11T12:05:38Z</time></trkpt><trkpt lat="51.7547593452" lon="-1.8400726654"><ele>129.92</ele><time>2015-11-11T12:05:45Z</time></trkpt><trkpt lat="51.7549066152" lon="-1.8399200309"><ele>132.80</ele><time>2015-11-11T12:06:02Z</time></trkpt><trkpt lat="51.7549249716" lon="-1.8399041053"><ele>128.47</ele><time>2015-11-11T12:06:04Z</time></trkpt><trkpt lat="51.7549526319" lon="-1.8398781214"><ele>132.80</ele><time>2015-11-11T12:06:07Z</time></trkpt><trkpt lat="51.7549695633" lon="-1.8398667220"><ele>127.99</ele><time>2015-11-11T12:06:09Z</time></trkpt><trkpt lat="51.7549785320" lon="-1.8398616090"><ele>130.40</ele><time>2015-11-11T12:06:10Z</time></trkpt><trkpt lat="51.7550387140" lon="-1.8398095574"><ele>130.40</ele><time>2015-11-11T12:06:17Z</time></trkpt><trkpt lat="51.7551060207" lon="-1.8397387303"><ele>130.40</ele><time>2015-11-11T12:06:26Z</time></trkpt><trkpt lat="51.7551952880" lon="-1.8396493793"><ele>133.28</ele><time>2015-11-11T12:06:36Z</time></trkpt><trkpt lat="51.7553721461" lon="-1.8395137601"><ele>133.28</ele><time>2015-11-11T12:06:55Z</time></trkpt><trkpt lat="51.7554508522" lon="-1.8394566793"><ele>130.88</ele><time>2015-11-11T12:07:03Z</time></trkpt><trkpt lat="51.7554796860" lon="-1.8394384068"><ele>132.32</ele><time>2015-11-11T12:07:06Z</time></trkpt><trkpt lat="51.7554987967" lon="-1.8394316174"><ele>128.95</ele><time>2015-11-11T12:07:09Z</time></trkpt><trkpt lat="51.7556885630" lon="-1.8392791506"><ele>133.76</ele><time>2015-11-11T12:07:29Z</time></trkpt><trkpt lat="51.7557163071" lon="-1.8392523285"><ele>130.40</ele><time>2015-11-11T12:07:32Z</time></trkpt><trkpt lat="51.7557457276" lon="-1.8392345589"><ele>134.24</ele><time>2015-11-11T12:07:35Z</time></trkpt><trkpt lat="51.7557640839" lon="-1.8392265961"><ele>130.88</ele><time>2015-11-11T12:07:37Z</time></trkpt><trkpt lat="51.7557875533" lon="-1.8392079044"><ele>134.24</ele><time>2015-11-11T12:07:40Z</time></trkpt><trkpt lat="51.7558061611" lon="-1.8391941581"><ele>130.40</ele><time>2015-11-11T12:07:42Z</time></trkpt><trkpt lat="51.7558491603" lon="-1.8391428608"><ele>134.24</ele><time>2015-11-11T12:07:47Z</time></trkpt><trkpt lat="51.7558664270" lon="-1.8391324673"><ele>131.36</ele><time>2015-11-11T12:07:49Z</time></trkpt><trkpt lat="51.7559093423" lon="-1.8391001131"><ele>134.24</ele><time>2015-11-11T12:07:53Z</time></trkpt><trkpt lat="51.7560136132" lon="-1.8390235864"><ele>132.32</ele><time>2015-11-11T12:08:03Z</time></trkpt><trkpt lat="51.7561307922" lon="-1.8389488198"><ele>132.32</ele><time>2015-11-11T12:08:15Z</time></trkpt><trkpt lat="51.7562149465" lon="-1.8388743047"><ele>136.16</ele><time>2015-11-11T12:08:24Z</time></trkpt><trkpt lat="51.7562241666" lon="-1.8388732150"><ele>132.80</ele><time>2015-11-11T12:08:25Z</time></trkpt><trkpt lat="51.7562698480" lon="-1.8388462253"><ele>128.47</ele><time>2015-11-11T12:08:31Z</time></trkpt><trkpt lat="51.7562716082" lon="-1.8388416152"><ele>132.32</ele><time>2015-11-11T12:08:32Z</time></trkpt><trkpt lat="51.7562739551" lon="-1.8388167210"><ele>132.80</ele><time>2015-11-11T12:08:34Z</time></trkpt><trkpt lat="51.7562642321" lon="-1.8387978617"><ele>132.80</ele><time>2015-11-11T12:08:56Z</time></trkpt><trkpt lat="51.7562646512" lon="-1.8387975264"><ele>134.72</ele><time>2015-11-11T12:09:05Z</time></trkpt><trkpt lat="51.7562763859" lon="-1.8388175592"><ele>132.80</ele><time>2015-11-11T12:09:07Z</time></trkpt><trkpt lat="51.7563189659" lon="-1.8388376758"><ele>133.76</ele><time>2015-11-11T12:09:18Z</time></trkpt><trkpt lat="51.7563550919" lon="-1.8388185650"><ele>129.92</ele><time>2015-11-11T12:09:21Z</time></trkpt><trkpt lat="51.7563632224" lon="-1.8388096802"><ele>131.84</ele><time>2015-11-11T12:09:22Z</time></trkpt><trkpt lat="51.7563795671" lon="-1.8387873005"><ele>131.36</ele><time>2015-11-11T12:09:24Z</time></trkpt><trkpt lat="51.7564112507" lon="-1.8387350813"><ele>134.72</ele><time>2015-11-11T12:09:28Z</time></trkpt><trkpt lat="51.7565329559" lon="-1.8386047427"><ele>129.92</ele><time>2015-11-11T12:09:40Z</time></trkpt><trkpt lat="51.7565523181" lon="-1.8385864701"><ele>132.80</ele><time>2015-11-11T12:09:42Z</time></trkpt><trkpt lat="51.7566418368" lon="-1.8385015614"><ele>129.43</ele><time>2015-11-11T12:09:51Z</time></trkpt><trkpt lat="51.7566603608" lon="-1.8384714704"><ele>133.28</ele><time>2015-11-11T12:09:53Z</time></trkpt><trkpt lat="51.7566744424" lon="-1.8384635076"><ele>132.80</ele><time>2015-11-11T12:09:54Z</time></trkpt><trkpt lat="51.7567851674" lon="-1.8383490108"><ele>132.80</ele><time>2015-11-11T12:10:03Z</time></trkpt><trkpt lat="51.7568475287" lon="-1.8382635992"><ele>132.80</ele><time>2015-11-11T12:10:11Z</time></trkpt><trkpt lat="51.7569795437" lon="-1.8381571490"><ele>131.36</ele><time>2015-11-11T12:10:24Z</time></trkpt><trkpt lat="51.7570400611" lon="-1.8380899262"><ele>131.84</ele><time>2015-11-11T12:10:32Z</time></trkpt><trkpt lat="51.7570745107" lon="-1.8380508665"><ele>135.20</ele><time>2015-11-11T12:10:36Z</time></trkpt><trkpt lat="51.7570850719" lon="-1.8380447477"><ele>132.32</ele><time>2015-11-11T12:10:37Z</time></trkpt><trkpt lat="51.7570939567" lon="-1.8380390480"><ele>128.47</ele><time>2015-11-11T12:10:38Z</time></trkpt><trkpt lat="51.7571009137" lon="-1.8380287383"><ele>131.36</ele><time>2015-11-11T12:10:39Z</time></trkpt><trkpt lat="51.7571186833" lon="-1.8380031735"><ele>132.32</ele><time>2015-11-11T12:10:41Z</time></trkpt><trkpt lat="51.7571782786" lon="-1.8379448354"><ele>130.40</ele><time>2015-11-11T12:10:47Z</time></trkpt><trkpt lat="51.7572042625" lon="-1.8379187677"><ele>133.76</ele><time>2015-11-11T12:10:50Z</time></trkpt><trkpt lat="51.7572234571" lon="-1.8379056919"><ele>128.95</ele><time>2015-11-11T12:10:52Z</time></trkpt><trkpt lat="51.7572866566" lon="-1.8378577475"><ele>132.80</ele><time>2015-11-11T12:10:57Z</time></trkpt><trkpt lat="51.7573427316" lon="-1.8377789576"><ele>128.95</ele><time>2015-11-11T12:11:05Z</time></trkpt><trkpt lat="51.7573517002" lon="-1.8377695698"><ele>132.32</ele><time>2015-11-11T12:11:06Z</time></trkpt><trkpt lat="51.7573643569" lon="-1.8377645407"><ele>128.47</ele><time>2015-11-11T12:11:07Z</time></trkpt><trkpt lat="51.7574102897" lon="-1.8377211224"><ele>133.28</ele><time>2015-11-11T12:11:11Z</time></trkpt><trkpt lat="51.7574192584" lon="-1.8377132434"><ele>129.92</ele><time>2015-11-11T12:11:12Z</time></trkpt><trkpt lat="51.7574824579" lon="-1.8376975693"><ele>134.24</ele><time>2015-11-11T12:11:17Z</time></trkpt><trkpt lat="51.7575062625" lon="-1.8376862537"><ele>130.88</ele><time>2015-11-11T12:11:19Z</time></trkpt><trkpt lat="51.7575461604" lon="-1.8376595993"><ele>128.95</ele><time>2015-11-11T12:11:23Z</time></trkpt><trkpt lat="51.7575660255" lon="-1.8376260716"><ele>132.32</ele><time>2015-11-11T12:11:26Z</time></trkpt><trkpt lat="51.7575841304" lon="-1.8375878502"><ele>128.95</ele><time>2015-11-11T12:11:29Z</time></trkpt><trkpt lat="51.7576104496" lon="-1.8374935538"><ele>131.84</ele><time>2015-11-11T12:11:36Z</time></trkpt><trkpt lat="51.7576140538" lon="-1.8374717608"><ele>126.55</ele><time>2015-11-11T12:11:38Z</time></trkpt><trkpt lat="51.7576169875" lon="-1.8374620378"><ele>129.92</ele><time>2015-11-11T12:11:39Z</time></trkpt><trkpt lat="51.7576664407" lon="-1.8374049570"><ele>129.43</ele><time>2015-11-11T12:11:47Z</time></trkpt><trkpt lat="51.7577072605" lon="-1.8373808172"><ele>127.99</ele><time>2015-11-11T12:11:56Z</time></trkpt><trkpt lat="51.7577136308" lon="-1.8373628799"><ele>129.92</ele><time>2015-11-11T12:11:57Z</time></trkpt><trkpt lat="51.7577691190" lon="-1.8372845091"><ele>131.36</ele><time>2015-11-11T12:12:02Z</time></trkpt><trkpt lat="51.7578087654" lon="-1.8372554239"><ele>127.99</ele><time>2015-11-11T12:12:05Z</time></trkpt><trkpt lat="51.7578242719" lon="-1.8372405879"><ele>130.88</ele><time>2015-11-11T12:12:07Z</time></trkpt><trkpt lat="51.7578613199" lon="-1.8372303620"><ele>126.55</ele><time>2015-11-11T12:12:10Z</time></trkpt><trkpt lat="51.7578770779" lon="-1.8372204714"><ele>127.51</ele><time>2015-11-11T12:12:11Z</time></trkpt><trkpt lat="51.7578894831" lon="-1.8372143526"><ele>127.51</ele><time>2015-11-11T12:12:12Z</time></trkpt><trkpt lat="51.7579464801" lon="-1.8371833395"><ele>124.63</ele><time>2015-11-11T12:12:17Z</time></trkpt><trkpt lat="51.7579542752" lon="-1.8371727783"><ele>126.55</ele><time>2015-11-11T12:12:18Z</time></trkpt><trkpt lat="51.7579719611" lon="-1.8371462077"><ele>126.07</ele><time>2015-11-11T12:12:20Z</time></trkpt><trkpt lat="51.7579994537" lon="-1.8371098302"><ele>127.51</ele><time>2015-11-11T12:12:23Z</time></trkpt><trkpt lat="51.7580271978" lon="-1.8370811641"><ele>126.07</ele><time>2015-11-11T12:12:27Z</time></trkpt><trkpt lat="51.7581052333" lon="-1.8370169587"><ele>124.15</ele><time>2015-11-11T12:12:36Z</time></trkpt><trkpt lat="51.7581370845" lon="-1.8369845208"><ele>127.51</ele><time>2015-11-11T12:12:39Z</time></trkpt><trkpt lat="51.7581506632" lon="-1.8369686790"><ele>123.67</ele><time>2015-11-11T12:12:41Z</time></trkpt><trkpt lat="51.7581548542" lon="-1.8369608000"><ele>124.63</ele><time>2015-11-11T12:12:42Z</time></trkpt><trkpt lat="51.7581608891" lon="-1.8369481433"><ele>124.63</ele><time>2015-11-11T12:12:43Z</time></trkpt><trkpt lat="51.7582570296" lon="-1.8368753046"><ele>126.07</ele><time>2015-11-11T12:12:53Z</time></trkpt><trkpt lat="51.7582759727" lon="-1.8368670903"><ele>123.19</ele><time>2015-11-11T12:12:55Z</time></trkpt><trkpt lat="51.7582989391" lon="-1.8368653301"><ele>126.55</ele><time>2015-11-11T12:12:58Z</time></trkpt><trkpt lat="51.7583405133" lon="-1.8368464708"><ele>122.71</ele><time>2015-11-11T12:13:02Z</time></trkpt><trkpt lat="51.7583511584" lon="-1.8368440401"><ele>123.19</ele><time>2015-11-11T12:13:03Z</time></trkpt><trkpt lat="51.7584138550" lon="-1.8368479796"><ele>123.19</ele><time>2015-11-11T12:13:20Z</time></trkpt><trkpt lat="51.7584461253" lon="-1.8368273601"><ele>114.53</ele><time>2015-11-11T12:13:24Z</time></trkpt><trkpt lat="51.7584550940" lon="-1.8368150387"><ele>125.59</ele><time>2015-11-11T12:13:25Z</time></trkpt><trkpt lat="51.7584860232" lon="-1.8368020467"><ele>123.19</ele><time>2015-11-11T12:13:33Z</time></trkpt><trkpt lat="51.7585211433" lon="-1.8367054034"><ele>118.86</ele><time>2015-11-11T12:13:46Z</time></trkpt><trkpt lat="51.7585294414" lon="-1.8366939202"><ele>120.30</ele><time>2015-11-11T12:13:47Z</time></trkpt><trkpt lat="51.7585721891" lon="-1.8365620729"><ele>119.82</ele><time>2015-11-11T12:13:55Z</time></trkpt><trkpt lat="51.7586284317" lon="-1.8363479152"><ele>117.90</ele><time>2015-11-11T12:14:08Z</time></trkpt><trkpt lat="51.7586263362" lon="-1.8363350909"><ele>117.42</ele><time>2015-11-11T12:14:09Z</time></trkpt><trkpt lat="51.7586111650" lon="-1.8362677004"><ele>116.46</ele><time>2015-11-11T12:14:14Z</time></trkpt><trkpt lat="51.7586115003" lon="-1.8362500146"><ele>117.42</ele><time>2015-11-11T12:14:15Z</time></trkpt><trkpt lat="51.7586713471" lon="-1.8360366113"><ele>114.05</ele><time>2015-11-11T12:14:29Z</time></trkpt><trkpt lat="51.7586734425" lon="-1.8360294867"><ele>115.01</ele><time>2015-11-11T12:14:30Z</time></trkpt><trkpt lat="51.7586954031" lon="-1.8358785287"><ele>112.13</ele><time>2015-11-11T12:14:43Z</time></trkpt><trkpt lat="51.7586851772" lon="-1.8358051870"><ele>111.17</ele><time>2015-11-11T12:14:49Z</time></trkpt><trkpt lat="51.7586857639" lon="-1.8356611859"><ele>108.29</ele><time>2015-11-11T12:15:07Z</time></trkpt><trkpt lat="51.7586827464" lon="-1.8356465176"><ele>108.77</ele><time>2015-11-11T12:15:08Z</time></trkpt><trkpt lat="51.7586588580" lon="-1.8355684821"><ele>108.29</ele><time>2015-11-11T12:15:14Z</time></trkpt><trkpt lat="51.7586772982" lon="-1.8354418315"><ele>106.84</ele><time>2015-11-11T12:15:21Z</time></trkpt><trkpt lat="51.7586807348" lon="-1.8353587668"><ele>105.88</ele><time>2015-11-11T12:15:26Z</time></trkpt><trkpt lat="51.7586457822" lon="-1.8352504726"><ele>105.40</ele><time>2015-11-11T12:15:33Z</time></trkpt><trkpt lat="51.7586019449" lon="-1.8351791427"><ele>104.44</ele><time>2015-11-11T12:15:38Z</time></trkpt><trkpt lat="51.7586384900" lon="-1.8350949883"><ele>103.48</ele><time>2015-11-11T12:15:45Z</time></trkpt><trkpt lat="51.7586648930" lon="-1.8350660708"><ele>104.44</ele><time>2015-11-11T12:16:00Z</time></trkpt><trkpt lat="51.7586159427" lon="-1.8349704333"><ele>104.92</ele><time>2015-11-11T12:16:14Z</time></trkpt><trkpt lat="51.7586079799" lon="-1.8349163700"><ele>101.56</ele><time>2015-11-11T12:16:17Z</time></trkpt><trkpt lat="51.7586058006" lon="-1.8349003606"><ele>103.96</ele><time>2015-11-11T12:16:18Z</time></trkpt><trkpt lat="51.7585859355" lon="-1.8346399348"><ele>103.00</ele><time>2015-11-11T12:16:37Z</time></trkpt><trkpt lat="51.7585671600" lon="-1.8345137034"><ele>104.44</ele><time>2015-11-11T12:16:45Z</time></trkpt><trkpt lat="51.7585685011" lon="-1.8344846182"><ele>103.48</ele><time>2015-11-11T12:16:47Z</time></trkpt><trkpt lat="51.7585772183" lon="-1.8341729790"><ele>103.48</ele><time>2015-11-11T12:17:09Z</time></trkpt><trkpt lat="51.7585763801" lon="-1.8341501802"><ele>104.92</ele><time>2015-11-11T12:17:12Z</time></trkpt><trkpt lat="51.7585729435" lon="-1.8341242801"><ele>100.60</ele><time>2015-11-11T12:17:14Z</time></trkpt><trkpt lat="51.7585606221" lon="-1.8340637628"><ele>105.40</ele><time>2015-11-11T12:17:17Z</time></trkpt><trkpt lat="51.7585590295" lon="-1.8340437301"><ele>104.92</ele><time>2015-11-11T12:17:18Z</time></trkpt><trkpt lat="51.7585710995" lon="-1.8339737412"><ele>104.44</ele><time>2015-11-11T12:17:27Z</time></trkpt><trkpt lat="51.7586332932" lon="-1.8339330889"><ele>107.32</ele><time>2015-11-11T12:17:46Z</time></trkpt><trkpt lat="51.7586356401" lon="-1.8339344300"><ele>103.96</ele><time>2015-11-11T12:17:47Z</time></trkpt><trkpt lat="51.7586373165" lon="-1.8339345977"><ele>106.84</ele><time>2015-11-11T12:17:48Z</time></trkpt><trkpt lat="51.7586391605" lon="-1.8338991422"><ele>101.56</ele><time>2015-11-11T12:17:52Z</time></trkpt><trkpt lat="51.7586453632" lon="-1.8338755891"><ele>106.84</ele><time>2015-11-11T12:17:54Z</time></trkpt><trkpt lat="51.7586508952" lon="-1.8338625133"><ele>105.40</ele><time>2015-11-11T12:17:55Z</time></trkpt><trkpt lat="51.7586613726" lon="-1.8338362779"><ele>103.48</ele><time>2015-11-11T12:17:57Z</time></trkpt><trkpt lat="51.7586656474" lon="-1.8337925244"><ele>107.32</ele><time>2015-11-11T12:18:00Z</time></trkpt><trkpt lat="51.7586663179" lon="-1.8337323423"><ele>102.04</ele><time>2015-11-11T12:18:04Z</time></trkpt><trkpt lat="51.7586669885" lon="-1.8337154947"><ele>103.96</ele><time>2015-11-11T12:18:05Z</time></trkpt><trkpt lat="51.7587091494" lon="-1.8336141575"><ele>105.88</ele><time>2015-11-11T12:18:13Z</time></trkpt><trkpt lat="51.7587420065" lon="-1.8336231261"><ele>104.92</ele><time>2015-11-11T12:18:39Z</time></trkpt><trkpt lat="51.7587746959" lon="-1.8335748464"><ele>104.44</ele><time>2015-11-11T12:19:04Z</time></trkpt><trkpt lat="51.7587852571" lon="-1.8335807975"><ele>104.92</ele><time>2015-11-11T12:19:05Z</time></trkpt><trkpt lat="51.7588047870" lon="-1.8335931189"><ele>105.88</ele><time>2015-11-11T12:19:07Z</time></trkpt><trkpt lat="51.7589119915" lon="-1.8336372077"><ele>114.05</ele><time>2015-11-11T12:19:20Z</time></trkpt><trkpt lat="51.7589186970" lon="-1.8336456735"><ele>106.84</ele><time>2015-11-11T12:19:21Z</time></trkpt><trkpt lat="51.7589258216" lon="-1.8336553965"><ele>103.00</ele><time>2015-11-11T12:19:22Z</time></trkpt><trkpt lat="51.7589348741" lon="-1.8336670473"><ele>103.96</ele><time>2015-11-11T12:19:23Z</time></trkpt><trkpt lat="51.7589798849" lon="-1.8337178417"><ele>104.92</ele><time>2015-11-11T12:19:29Z</time></trkpt><trkpt lat="51.7590519693" lon="-1.8337797839"><ele>109.25</ele><time>2015-11-11T12:19:37Z</time></trkpt><trkpt lat="51.7590603512" lon="-1.8337820470"><ele>106.84</ele><time>2015-11-11T12:19:38Z</time></trkpt><trkpt lat="51.7590683978" lon="-1.8337872438"><ele>103.48</ele><time>2015-11-11T12:19:39Z</time></trkpt><trkpt lat="51.7590990756" lon="-1.8338148203"><ele>106.36</ele><time>2015-11-11T12:19:42Z</time></trkpt><trkpt lat="51.7591419071" lon="-1.8338574842"><ele>104.44</ele><time>2015-11-11T12:19:47Z</time></trkpt><trkpt lat="51.7591627780" lon="-1.8339390401"><ele>104.92</ele><time>2015-11-11T12:20:07Z</time></trkpt><trkpt lat="51.7591621913" lon="-1.8339527026"><ele>103.96</ele><time>2015-11-11T12:20:21Z</time></trkpt><trkpt lat="51.7591767758" lon="-1.8339612521"><ele>107.32</ele><time>2015-11-11T12:20:28Z</time></trkpt><trkpt lat="51.7591813859" lon="-1.8339642696"><ele>102.52</ele><time>2015-11-11T12:20:29Z</time></trkpt><trkpt lat="51.7591973115" lon="-1.8339767586"><ele>106.36</ele><time>2015-11-11T12:20:31Z</time></trkpt><trkpt lat="51.7592051066" lon="-1.8339822069"><ele>105.88</ele><time>2015-11-11T12:20:32Z</time></trkpt><trkpt lat="51.7592165060" lon="-1.8339825422"><ele>104.44</ele><time>2015-11-11T12:20:35Z</time></trkpt><trkpt lat="51.7592527159" lon="-1.8339988030"><ele>108.29</ele><time>2015-11-11T12:20:57Z</time></trkpt><trkpt lat="51.7592696473" lon="-1.8340173271"><ele>103.48</ele><time>2015-11-11T12:20:59Z</time></trkpt><trkpt lat="51.7592784483" lon="-1.8340269662"><ele>103.00</ele><time>2015-11-11T12:21:00Z</time></trkpt><trkpt lat="51.7593495268" lon="-1.8341225199"><ele>103.96</ele><time>2015-11-11T12:21:06Z</time></trkpt><trkpt lat="51.7593828868" lon="-1.8341476656"><ele>113.09</ele><time>2015-11-11T12:21:09Z</time></trkpt><trkpt lat="51.7593869939" lon="-1.8341528624"><ele>103.96</ele><time>2015-11-11T12:21:10Z</time></trkpt><trkpt lat="51.7593869101" lon="-1.8341605738"><ele>83.29</ele><time>2015-11-11T12:21:15Z</time></trkpt><trkpt lat="51.7593870778" lon="-1.8341606576"><ele>124.15</ele><time>2015-11-11T12:21:16Z</time></trkpt><trkpt lat="51.7593869101" lon="-1.8341597356"><ele>103.48</ele><time>2015-11-11T12:21:17Z</time></trkpt><trkpt lat="51.7593874130" lon="-1.8341515213"><ele>92.42</ele><time>2015-11-11T12:21:25Z</time></trkpt><trkpt lat="51.7593877483" lon="-1.8341516890"><ele>105.40</ele><time>2015-11-11T12:21:26Z</time></trkpt><trkpt lat="51.7593883350" lon="-1.8341517728"><ele>97.23</ele><time>2015-11-11T12:21:28Z</time></trkpt><trkpt lat="51.7593886703" lon="-1.8341526110"><ele>106.36</ele><time>2015-11-11T12:21:29Z</time></trkpt><trkpt lat="51.7593889218" lon="-1.8341528624"><ele>100.60</ele><time>2015-11-11T12:21:30Z</time></trkpt><trkpt lat="51.7593889218" lon="-1.8341527786"><ele>104.92</ele><time>2015-11-11T12:21:31Z</time></trkpt><trkpt lat="51.7594159953" lon="-1.8341611605"><ele>104.44</ele><time>2015-11-11T12:21:35Z</time></trkpt><trkpt lat="51.7594449129" lon="-1.8341811094"><ele>108.29</ele><time>2015-11-11T12:21:37Z</time></trkpt><trkpt lat="51.7594620958" lon="-1.8341931794"><ele>103.96</ele><time>2015-11-11T12:21:38Z</time></trkpt><trkpt lat="51.7594902590" lon="-1.8342148885"><ele>107.32</ele><time>2015-11-11T12:21:40Z</time></trkpt><trkpt lat="51.7594990600" lon="-1.8342265394"><ele>106.36</ele><time>2015-11-11T12:21:41Z</time></trkpt><trkpt lat="51.7595081124" lon="-1.8342417106"><ele>103.00</ele><time>2015-11-11T12:21:42Z</time></trkpt><trkpt lat="51.7595248763" lon="-1.8342757411"><ele>102.52</ele><time>2015-11-11T12:21:44Z</time></trkpt><trkpt lat="51.7595674563" lon="-1.8343336601"><ele>106.36</ele><time>2015-11-11T12:21:48Z</time></trkpt><trkpt lat="51.7595915124" lon="-1.8343589734"><ele>103.48</ele><time>2015-11-11T12:21:50Z</time></trkpt><trkpt lat="51.7596410494" lon="-1.8343913276"><ele>103.00</ele><time>2015-11-11T12:21:55Z</time></trkpt><trkpt lat="51.7596905865" lon="-1.8344280403"><ele>107.81</ele><time>2015-11-11T12:21:59Z</time></trkpt><trkpt lat="51.7597149778" lon="-1.8344457261"><ele>103.96</ele><time>2015-11-11T12:22:01Z</time></trkpt><trkpt lat="51.7598146386" lon="-1.8345184810"><ele>105.40</ele><time>2015-11-11T12:22:10Z</time></trkpt><trkpt lat="51.7598360963" lon="-1.8345369212"><ele>101.56</ele><time>2015-11-11T12:22:12Z</time></trkpt><trkpt lat="51.7599045765" lon="-1.8345775735"><ele>105.40</ele><time>2015-11-11T12:22:18Z</time></trkpt><trkpt lat="51.7599265371" lon="-1.8345934153"><ele>102.04</ele><time>2015-11-11T12:22:21Z</time></trkpt><trkpt lat="51.7599336617" lon="-1.8346074130"><ele>102.52</ele><time>2015-11-11T12:22:22Z</time></trkpt><trkpt lat="51.7599513475" lon="-1.8346344866"><ele>103.48</ele><time>2015-11-11T12:22:24Z</time></trkpt><trkpt lat="51.7599773314" lon="-1.8346519209"><ele>104.92</ele><time>2015-11-11T12:22:26Z</time></trkpt><trkpt lat="51.7600287125" lon="-1.8346828502"><ele>102.04</ele><time>2015-11-11T12:22:31Z</time></trkpt><trkpt lat="51.7600679398" lon="-1.8346991949"><ele>105.88</ele><time>2015-11-11T12:22:34Z</time></trkpt><trkpt lat="51.7600794230" lon="-1.8347018771"><ele>104.44</ele><time>2015-11-11T12:22:35Z</time></trkpt><trkpt lat="51.7600924987" lon="-1.8347039726"><ele>102.04</ele><time>2015-11-11T12:22:37Z</time></trkpt><trkpt lat="51.7601229250" lon="-1.8346827663"><ele>106.36</ele><time>2015-11-11T12:22:42Z</time></trkpt><trkpt lat="51.7601328995" lon="-1.8346844427"><ele>103.96</ele><time>2015-11-11T12:22:43Z</time></trkpt><trkpt lat="51.7601692770" lon="-1.8346878793"><ele>101.08</ele><time>2015-11-11T12:22:46Z</time></trkpt><trkpt lat="51.7602450494" lon="-1.8347080797"><ele>103.00</ele><time>2015-11-11T12:22:51Z</time></trkpt><trkpt lat="51.7602743022" lon="-1.8347240891"><ele>106.84</ele><time>2015-11-11T12:22:53Z</time></trkpt><trkpt lat="51.7602843605" lon="-1.8347338121"><ele>104.44</ele><time>2015-11-11T12:22:54Z</time></trkpt><trkpt lat="51.7603774834" lon="-1.8348312937"><ele>105.40</ele><time>2015-11-11T12:23:03Z</time></trkpt><trkpt lat="51.7603967618" lon="-1.8348526675"><ele>101.56</ele><time>2015-11-11T12:23:05Z</time></trkpt><trkpt lat="51.7604181357" lon="-1.8348794896"><ele>105.40</ele><time>2015-11-11T12:23:07Z</time></trkpt><trkpt lat="51.7604466341" lon="-1.8348986842"><ele>106.36</ele><time>2015-11-11T12:23:09Z</time></trkpt><trkpt lat="51.7604751326" lon="-1.8348954152"><ele>101.56</ele><time>2015-11-11T12:23:11Z</time></trkpt><trkpt lat="51.7604898009" lon="-1.8348961696"><ele>104.92</ele><time>2015-11-11T12:23:12Z</time></trkpt><trkpt lat="51.7605243344" lon="-1.8349057250"><ele>101.08</ele><time>2015-11-11T12:23:14Z</time></trkpt><trkpt lat="51.7605670821" lon="-1.8349220697"><ele>104.44</ele><time>2015-11-11T12:23:17Z</time></trkpt><trkpt lat="51.7605754640" lon="-1.8349242490"><ele>107.81</ele><time>2015-11-11T12:23:18Z</time></trkpt><trkpt lat="51.7605851032" lon="-1.8349251710"><ele>104.44</ele><time>2015-11-11T12:23:19Z</time></trkpt><trkpt lat="51.7606358137" lon="-1.8349519931"><ele>104.44</ele><time>2015-11-11T12:23:24Z</time></trkpt><trkpt lat="51.7606959119" lon="-1.8349898793"><ele>105.40</ele><time>2015-11-11T12:23:29Z</time></trkpt><trkpt lat="51.7607115861" lon="-1.8350088224"><ele>101.56</ele><time>2015-11-11T12:23:31Z</time></trkpt><trkpt lat="51.7607436888" lon="-1.8350656517"><ele>106.84</ele><time>2015-11-11T12:23:35Z</time></trkpt><trkpt lat="51.7607544176" lon="-1.8350776378"><ele>103.48</ele><time>2015-11-11T12:23:36Z</time></trkpt><trkpt lat="51.7607765459" lon="-1.8351036217"><ele>104.92</ele><time>2015-11-11T12:23:39Z</time></trkpt><trkpt lat="51.7607936449" lon="-1.8351185415"><ele>101.08</ele><time>2015-11-11T12:23:41Z</time></trkpt><trkpt lat="51.7608447745" lon="-1.8351410888"><ele>106.84</ele><time>2015-11-11T12:23:45Z</time></trkpt><trkpt lat="51.7608672380" lon="-1.8351539969"><ele>101.56</ele><time>2015-11-11T12:23:47Z</time></trkpt><trkpt lat="51.7608757876" lon="-1.8351596966"><ele>105.88</ele><time>2015-11-11T12:23:48Z</time></trkpt><trkpt lat="51.7609042022" lon="-1.8351598643"><ele>103.48</ele><time>2015-11-11T12:23:52Z</time></trkpt><trkpt lat="51.7609342933" lon="-1.8351560924"><ele>107.81</ele><time>2015-11-11T12:23:54Z</time></trkpt><trkpt lat="51.7609471176" lon="-1.8351574335"><ele>105.40</ele><time>2015-11-11T12:23:55Z</time></trkpt><trkpt lat="51.7609690782" lon="-1.8351638876"><ele>101.56</ele><time>2015-11-11T12:23:57Z</time></trkpt><trkpt lat="51.7609845009" lon="-1.8351567630"><ele>104.92</ele><time>2015-11-11T12:23:59Z</time></trkpt><trkpt lat="51.7609995883" lon="-1.8350835890"><ele>100.60</ele><time>2015-11-11T12:24:03Z</time></trkpt><trkpt lat="51.7610062100" lon="-1.8350633886"><ele>109.73</ele><time>2015-11-11T12:24:04Z</time></trkpt><trkpt lat="51.7610137537" lon="-1.8350476306"><ele>105.88</ele><time>2015-11-11T12:24:05Z</time></trkpt><trkpt lat="51.7610132508" lon="-1.8350469600"><ele>105.40</ele><time>2015-11-11T12:24:11Z</time></trkpt></trkseg></trk></gpx>